<?xml version="1.0" encoding="UTF-8" standalone="no" ?>
<gpx xmlns="http://www.topografix.com/GPX/1/1" xmlns:xsi="http://www.w3.org/2001/XMLSchema-instance" xsi:schemaLocation="http://www.topografix.com/GPX/1/1 http://www.topografix.com/GPX/1/1/gpx.xsd" version="1.1" creator="VisuGPX - https://www.visugpx.com">
  <metadata>
    <name>Réservoirs de Piraillan- Truc Vert</name>
    <desc><![CDATA[Randonnée facile entre bassin et océan]]></desc>
  </metadata>
  <trk>
    <name><![CDATA[Réservoir de Piraillan- Truc vert - Garonne]]></name>
    <extensions>
      <line xmlns="http://www.topografix.com/GPX/gpx_style/0/2">
        <color>0000FF</color>
        <width>4</width>
      </line>
    </extensions>
    <trkseg>
      <trkpt lat="44.71146" lon="-1.22035">
        <ele>6.87</ele>
        <time>2023-07-23T07:02:28Z</time>
      </trkpt>
      <trkpt lat="44.71152" lon="-1.2205">
        <ele>6.87</ele>
        <time>2023-07-23T07:02:42Z</time>
      </trkpt>
      <trkpt lat="44.7116" lon="-1.22059">
        <ele>6.87</ele>
        <time>2023-07-23T07:02:56Z</time>
      </trkpt>
      <trkpt lat="44.7116" lon="-1.22066">
        <ele>7.35</ele>
        <time>2023-07-23T07:03:02Z</time>
      </trkpt>
      <trkpt lat="44.71158" lon="-1.22069">
        <ele>6.87</ele>
        <time>2023-07-23T07:03:12Z</time>
      </trkpt>
      <trkpt lat="44.71155" lon="-1.22068">
        <ele>7.35</ele>
        <time>2023-07-23T07:03:26Z</time>
      </trkpt>
      <trkpt lat="44.71156" lon="-1.22064">
        <ele>7.35</ele>
        <time>2023-07-23T07:03:38Z</time>
      </trkpt>
      <trkpt lat="44.71149" lon="-1.22068">
        <ele>6.87</ele>
        <time>2023-07-23T07:03:53Z</time>
      </trkpt>
      <trkpt lat="44.71149" lon="-1.22064">
        <ele>6.87</ele>
        <time>2023-07-23T07:03:57Z</time>
      </trkpt>
      <trkpt lat="44.71149" lon="-1.22055">
        <ele>7.35</ele>
        <time>2023-07-23T07:04:03Z</time>
      </trkpt>
      <trkpt lat="44.7115" lon="-1.2205">
        <ele>7.83</ele>
        <time>2023-07-23T07:04:06Z</time>
      </trkpt>
      <trkpt lat="44.71154" lon="-1.22026">
        <ele>7.35</ele>
        <time>2023-07-23T07:04:19Z</time>
      </trkpt>
      <trkpt lat="44.71163" lon="-1.2204">
        <ele>6.87</ele>
        <time>2023-07-23T07:04:30Z</time>
      </trkpt>
      <trkpt lat="44.71152" lon="-1.22053">
        <ele>7.35</ele>
        <time>2023-07-23T07:04:44Z</time>
      </trkpt>
      <trkpt lat="44.71155" lon="-1.22053">
        <ele>7.35</ele>
        <time>2023-07-23T07:04:56Z</time>
      </trkpt>
      <trkpt lat="44.71157" lon="-1.22044">
        <ele>7.35</ele>
        <time>2023-07-23T07:05:06Z</time>
      </trkpt>
      <trkpt lat="44.71165" lon="-1.22034">
        <ele>7.83</ele>
        <time>2023-07-23T07:05:19Z</time>
      </trkpt>
      <trkpt lat="44.71167" lon="-1.22027">
        <ele>8.31</ele>
        <time>2023-07-23T07:05:29Z</time>
      </trkpt>
      <trkpt lat="44.71171" lon="-1.22023">
        <ele>8.79</ele>
        <time>2023-07-23T07:05:38Z</time>
      </trkpt>
      <trkpt lat="44.71174" lon="-1.22022">
        <ele>8.79</ele>
        <time>2023-07-23T07:05:49Z</time>
      </trkpt>
      <trkpt lat="44.71181" lon="-1.22025">
        <ele>7.83</ele>
        <time>2023-07-23T07:05:59Z</time>
      </trkpt>
      <trkpt lat="44.71191" lon="-1.22031">
        <ele>8.31</ele>
        <time>2023-07-23T07:06:06Z</time>
      </trkpt>
      <trkpt lat="44.71203" lon="-1.22032">
        <ele>7.83</ele>
        <time>2023-07-23T07:06:13Z</time>
      </trkpt>
      <trkpt lat="44.71207" lon="-1.22035">
        <ele>7.83</ele>
        <time>2023-07-23T07:06:17Z</time>
      </trkpt>
      <trkpt lat="44.71217" lon="-1.22051">
        <ele>7.83</ele>
        <time>2023-07-23T07:06:30Z</time>
      </trkpt>
      <trkpt lat="44.71225" lon="-1.22063">
        <ele>8.79</ele>
        <time>2023-07-23T07:06:41Z</time>
      </trkpt>
      <trkpt lat="44.71232" lon="-1.22073">
        <ele>8.79</ele>
        <time>2023-07-23T07:06:50Z</time>
      </trkpt>
      <trkpt lat="44.71242" lon="-1.22087">
        <ele>8.79</ele>
        <time>2023-07-23T07:07:01Z</time>
      </trkpt>
      <trkpt lat="44.71243" lon="-1.22088">
        <ele>8.79</ele>
        <time>2023-07-23T07:07:02Z</time>
      </trkpt>
      <trkpt lat="44.7125" lon="-1.22104">
        <ele>8.31</ele>
        <time>2023-07-23T07:07:13Z</time>
      </trkpt>
      <trkpt lat="44.71254" lon="-1.22118">
        <ele>8.79</ele>
        <time>2023-07-23T07:07:24Z</time>
      </trkpt>
      <trkpt lat="44.71261" lon="-1.22132">
        <ele>8.31</ele>
        <time>2023-07-23T07:07:33Z</time>
      </trkpt>
      <trkpt lat="44.71267" lon="-1.22145">
        <ele>8.31</ele>
        <time>2023-07-23T07:07:44Z</time>
      </trkpt>
      <trkpt lat="44.71273" lon="-1.22159">
        <ele>7.83</ele>
        <time>2023-07-23T07:07:56Z</time>
      </trkpt>
      <trkpt lat="44.71276" lon="-1.22173">
        <ele>8.31</ele>
        <time>2023-07-23T07:08:06Z</time>
      </trkpt>
      <trkpt lat="44.71282" lon="-1.22185">
        <ele>8.31</ele>
        <time>2023-07-23T07:08:16Z</time>
      </trkpt>
      <trkpt lat="44.713" lon="-1.22203">
        <ele>8.31</ele>
        <time>2023-07-23T07:08:28Z</time>
      </trkpt>
      <trkpt lat="44.71315" lon="-1.22218">
        <ele>8.31</ele>
        <time>2023-07-23T07:08:39Z</time>
      </trkpt>
      <trkpt lat="44.71326" lon="-1.22227">
        <ele>7.83</ele>
        <time>2023-07-23T07:08:49Z</time>
      </trkpt>
      <trkpt lat="44.71338" lon="-1.22242">
        <ele>7.83</ele>
        <time>2023-07-23T07:09:00Z</time>
      </trkpt>
      <trkpt lat="44.71343" lon="-1.22255">
        <ele>8.31</ele>
        <time>2023-07-23T07:09:10Z</time>
      </trkpt>
      <trkpt lat="44.71344" lon="-1.22273">
        <ele>8.79</ele>
        <time>2023-07-23T07:09:22Z</time>
      </trkpt>
      <trkpt lat="44.71342" lon="-1.22298">
        <ele>7.83</ele>
        <time>2023-07-23T07:09:34Z</time>
      </trkpt>
      <trkpt lat="44.71345" lon="-1.22322">
        <ele>7.83</ele>
        <time>2023-07-23T07:09:46Z</time>
      </trkpt>
      <trkpt lat="44.71346" lon="-1.22346">
        <ele>8.31</ele>
        <time>2023-07-23T07:09:55Z</time>
      </trkpt>
      <trkpt lat="44.71349" lon="-1.22363">
        <ele>8.79</ele>
        <time>2023-07-23T07:10:04Z</time>
      </trkpt>
      <trkpt lat="44.71347" lon="-1.22382">
        <ele>8.31</ele>
        <time>2023-07-23T07:10:14Z</time>
      </trkpt>
      <trkpt lat="44.71347" lon="-1.22401">
        <ele>8.79</ele>
        <time>2023-07-23T07:10:27Z</time>
      </trkpt>
      <trkpt lat="44.71348" lon="-1.22417">
        <ele>8.79</ele>
        <time>2023-07-23T07:10:37Z</time>
      </trkpt>
      <trkpt lat="44.71345" lon="-1.22432">
        <ele>8.79</ele>
        <time>2023-07-23T07:10:49Z</time>
      </trkpt>
      <trkpt lat="44.71343" lon="-1.2244">
        <ele>8.31</ele>
        <time>2023-07-23T07:10:53Z</time>
      </trkpt>
      <trkpt lat="44.71341" lon="-1.22468">
        <ele>8.31</ele>
        <time>2023-07-23T07:11:05Z</time>
      </trkpt>
      <trkpt lat="44.71338" lon="-1.2248">
        <ele>8.79</ele>
        <time>2023-07-23T07:11:16Z</time>
      </trkpt>
      <trkpt lat="44.71333" lon="-1.22494">
        <ele>9.27</ele>
        <time>2023-07-23T07:11:27Z</time>
      </trkpt>
      <trkpt lat="44.71321" lon="-1.22518">
        <ele>8.79</ele>
        <time>2023-07-23T07:11:38Z</time>
      </trkpt>
      <trkpt lat="44.71313" lon="-1.22542">
        <ele>9.27</ele>
        <time>2023-07-23T07:11:47Z</time>
      </trkpt>
      <trkpt lat="44.71309" lon="-1.22568">
        <ele>8.79</ele>
        <time>2023-07-23T07:11:59Z</time>
      </trkpt>
      <trkpt lat="44.71309" lon="-1.22584">
        <ele>9.27</ele>
        <time>2023-07-23T07:12:09Z</time>
      </trkpt>
      <trkpt lat="44.71306" lon="-1.22595">
        <ele>8.79</ele>
        <time>2023-07-23T07:12:19Z</time>
      </trkpt>
      <trkpt lat="44.71301" lon="-1.22609">
        <ele>8.79</ele>
        <time>2023-07-23T07:12:31Z</time>
      </trkpt>
      <trkpt lat="44.71294" lon="-1.22636">
        <ele>8.79</ele>
        <time>2023-07-23T07:12:42Z</time>
      </trkpt>
      <trkpt lat="44.71292" lon="-1.22657">
        <ele>9.75</ele>
        <time>2023-07-23T07:12:51Z</time>
      </trkpt>
      <trkpt lat="44.71286" lon="-1.22682">
        <ele>10.23</ele>
        <time>2023-07-23T07:13:01Z</time>
      </trkpt>
      <trkpt lat="44.71291" lon="-1.2269">
        <ele>11.19</ele>
        <time>2023-07-23T07:13:09Z</time>
      </trkpt>
      <trkpt lat="44.71302" lon="-1.22699">
        <ele>11.67</ele>
        <time>2023-07-23T07:13:17Z</time>
      </trkpt>
      <trkpt lat="44.71322" lon="-1.22703">
        <ele>13.6</ele>
        <time>2023-07-23T07:13:31Z</time>
      </trkpt>
      <trkpt lat="44.71334" lon="-1.22705">
        <ele>15.52</ele>
        <time>2023-07-23T07:13:42Z</time>
      </trkpt>
      <trkpt lat="44.71345" lon="-1.22709">
        <ele>16.96</ele>
        <time>2023-07-23T07:13:54Z</time>
      </trkpt>
      <trkpt lat="44.71353" lon="-1.22715">
        <ele>17.92</ele>
        <time>2023-07-23T07:14:04Z</time>
      </trkpt>
      <trkpt lat="44.71367" lon="-1.22721">
        <ele>18.4</ele>
        <time>2023-07-23T07:14:15Z</time>
      </trkpt>
      <trkpt lat="44.7138" lon="-1.22733">
        <ele>19.36</ele>
        <time>2023-07-23T07:14:25Z</time>
      </trkpt>
      <trkpt lat="44.71388" lon="-1.22744">
        <ele>20.32</ele>
        <time>2023-07-23T07:14:33Z</time>
      </trkpt>
      <trkpt lat="44.71411" lon="-1.22745">
        <ele>21.77</ele>
        <time>2023-07-23T07:14:45Z</time>
      </trkpt>
      <trkpt lat="44.71427" lon="-1.22745">
        <ele>22.25</ele>
        <time>2023-07-23T07:14:52Z</time>
      </trkpt>
      <trkpt lat="44.71431" lon="-1.22744">
        <ele>22.73</ele>
        <time>2023-07-23T07:14:56Z</time>
      </trkpt>
      <trkpt lat="44.71446" lon="-1.22743">
        <ele>24.17</ele>
        <time>2023-07-23T07:15:09Z</time>
      </trkpt>
      <trkpt lat="44.71455" lon="-1.22742">
        <ele>24.65</ele>
        <time>2023-07-23T07:15:19Z</time>
      </trkpt>
      <trkpt lat="44.71458" lon="-1.22741">
        <ele>24.65</ele>
        <time>2023-07-23T07:15:21Z</time>
      </trkpt>
      <trkpt lat="44.71479" lon="-1.22737">
        <ele>25.13</ele>
        <time>2023-07-23T07:15:35Z</time>
      </trkpt>
      <trkpt lat="44.71487" lon="-1.22734">
        <ele>25.13</ele>
        <time>2023-07-23T07:15:42Z</time>
      </trkpt>
      <trkpt lat="44.71501" lon="-1.22727">
        <ele>25.61</ele>
        <time>2023-07-23T07:15:53Z</time>
      </trkpt>
      <trkpt lat="44.71518" lon="-1.22725">
        <ele>27.05</ele>
        <time>2023-07-23T07:16:06Z</time>
      </trkpt>
      <trkpt lat="44.71527" lon="-1.22723">
        <ele>28.02</ele>
        <time>2023-07-23T07:16:13Z</time>
      </trkpt>
      <trkpt lat="44.71537" lon="-1.22725">
        <ele>28.5</ele>
        <time>2023-07-23T07:16:23Z</time>
      </trkpt>
      <trkpt lat="44.7155" lon="-1.22727">
        <ele>29.94</ele>
        <time>2023-07-23T07:16:35Z</time>
      </trkpt>
      <trkpt lat="44.71559" lon="-1.2273">
        <ele>31.86</ele>
        <time>2023-07-23T07:16:43Z</time>
      </trkpt>
      <trkpt lat="44.71564" lon="-1.22733">
        <ele>31.86</ele>
        <time>2023-07-23T07:16:52Z</time>
      </trkpt>
      <trkpt lat="44.71571" lon="-1.22731">
        <ele>30.9</ele>
        <time>2023-07-23T07:16:58Z</time>
      </trkpt>
      <trkpt lat="44.71591" lon="-1.2272">
        <ele>28.98</ele>
        <time>2023-07-23T07:17:10Z</time>
      </trkpt>
      <trkpt lat="44.71593" lon="-1.2272">
        <ele>28.5</ele>
        <time>2023-07-23T07:17:12Z</time>
      </trkpt>
      <trkpt lat="44.71595" lon="-1.22723">
        <ele>28.98</ele>
        <time>2023-07-23T07:17:15Z</time>
      </trkpt>
      <trkpt lat="44.71596" lon="-1.22724">
        <ele>28.02</ele>
        <time>2023-07-23T07:17:16Z</time>
      </trkpt>
      <trkpt lat="44.71598" lon="-1.2274">
        <ele>28.02</ele>
        <time>2023-07-23T07:17:27Z</time>
      </trkpt>
      <trkpt lat="44.71598" lon="-1.22745">
        <ele>28.02</ele>
        <time>2023-07-23T07:17:31Z</time>
      </trkpt>
      <trkpt lat="44.71602" lon="-1.22767">
        <ele>28.98</ele>
        <time>2023-07-23T07:17:43Z</time>
      </trkpt>
      <trkpt lat="44.71609" lon="-1.22791">
        <ele>28.98</ele>
        <time>2023-07-23T07:17:56Z</time>
      </trkpt>
      <trkpt lat="44.71618" lon="-1.2281">
        <ele>28.02</ele>
        <time>2023-07-23T07:18:08Z</time>
      </trkpt>
      <trkpt lat="44.71619" lon="-1.22818">
        <ele>27.53</ele>
        <time>2023-07-23T07:18:13Z</time>
      </trkpt>
      <trkpt lat="44.71622" lon="-1.22838">
        <ele>27.05</ele>
        <time>2023-07-23T07:18:24Z</time>
      </trkpt>
      <trkpt lat="44.71627" lon="-1.22857">
        <ele>25.61</ele>
        <time>2023-07-23T07:18:35Z</time>
      </trkpt>
      <trkpt lat="44.71629" lon="-1.22877">
        <ele>24.65</ele>
        <time>2023-07-23T07:18:45Z</time>
      </trkpt>
      <trkpt lat="44.71632" lon="-1.229">
        <ele>23.21</ele>
        <time>2023-07-23T07:18:58Z</time>
      </trkpt>
      <trkpt lat="44.71635" lon="-1.22921">
        <ele>21.29</ele>
        <time>2023-07-23T07:19:08Z</time>
      </trkpt>
      <trkpt lat="44.71638" lon="-1.22939">
        <ele>19.84</ele>
        <time>2023-07-23T07:19:18Z</time>
      </trkpt>
      <trkpt lat="44.71646" lon="-1.22959">
        <ele>18.4</ele>
        <time>2023-07-23T07:19:29Z</time>
      </trkpt>
      <trkpt lat="44.71648" lon="-1.22977">
        <ele>16.48</ele>
        <time>2023-07-23T07:19:38Z</time>
      </trkpt>
      <trkpt lat="44.7165" lon="-1.22991">
        <ele>15.04</ele>
        <time>2023-07-23T07:19:46Z</time>
      </trkpt>
      <trkpt lat="44.71651" lon="-1.23008">
        <ele>13.6</ele>
        <time>2023-07-23T07:19:56Z</time>
      </trkpt>
      <trkpt lat="44.71652" lon="-1.23018">
        <ele>12.63</ele>
        <time>2023-07-23T07:20:06Z</time>
      </trkpt>
      <trkpt lat="44.71652" lon="-1.23028">
        <ele>11.67</ele>
        <time>2023-07-23T07:20:16Z</time>
      </trkpt>
      <trkpt lat="44.71648" lon="-1.23036">
        <ele>11.19</ele>
        <time>2023-07-23T07:20:27Z</time>
      </trkpt>
      <trkpt lat="44.71638" lon="-1.23054">
        <ele>10.23</ele>
        <time>2023-07-23T07:20:36Z</time>
      </trkpt>
      <trkpt lat="44.71631" lon="-1.23066">
        <ele>10.23</ele>
        <time>2023-07-23T07:20:46Z</time>
      </trkpt>
      <trkpt lat="44.71628" lon="-1.23082">
        <ele>9.27</ele>
        <time>2023-07-23T07:20:57Z</time>
      </trkpt>
      <trkpt lat="44.71626" lon="-1.23106">
        <ele>8.79</ele>
        <time>2023-07-23T07:21:08Z</time>
      </trkpt>
      <trkpt lat="44.71625" lon="-1.23133">
        <ele>8.79</ele>
        <time>2023-07-23T07:21:20Z</time>
      </trkpt>
      <trkpt lat="44.71623" lon="-1.23162">
        <ele>8.79</ele>
        <time>2023-07-23T07:21:34Z</time>
      </trkpt>
      <trkpt lat="44.71623" lon="-1.23176">
        <ele>8.31</ele>
        <time>2023-07-23T07:21:44Z</time>
      </trkpt>
      <trkpt lat="44.71624" lon="-1.23192">
        <ele>8.31</ele>
        <time>2023-07-23T07:21:54Z</time>
      </trkpt>
      <trkpt lat="44.71622" lon="-1.232">
        <ele>8.79</ele>
        <time>2023-07-23T07:22:07Z</time>
      </trkpt>
      <trkpt lat="44.71619" lon="-1.23208">
        <ele>8.31</ele>
        <time>2023-07-23T07:22:23Z</time>
      </trkpt>
      <trkpt lat="44.71618" lon="-1.23212">
        <ele>8.31</ele>
        <time>2023-07-23T07:22:36Z</time>
      </trkpt>
      <trkpt lat="44.71613" lon="-1.23214">
        <ele>8.31</ele>
        <time>2023-07-23T07:22:48Z</time>
      </trkpt>
      <trkpt lat="44.7161" lon="-1.23215">
        <ele>7.83</ele>
        <time>2023-07-23T07:23:01Z</time>
      </trkpt>
      <trkpt lat="44.71611" lon="-1.2321">
        <ele>7.83</ele>
        <time>2023-07-23T07:23:16Z</time>
      </trkpt>
      <trkpt lat="44.71612" lon="-1.23209">
        <ele>8.31</ele>
        <time>2023-07-23T07:23:31Z</time>
      </trkpt>
      <trkpt lat="44.71614" lon="-1.23209">
        <ele>8.79</ele>
        <time>2023-07-23T07:23:48Z</time>
      </trkpt>
      <trkpt lat="44.71614" lon="-1.23208">
        <ele>8.31</ele>
        <time>2023-07-23T07:24:02Z</time>
      </trkpt>
      <trkpt lat="44.71614" lon="-1.2321">
        <ele>8.79</ele>
        <time>2023-07-23T07:24:19Z</time>
      </trkpt>
      <trkpt lat="44.71606" lon="-1.23217">
        <ele>8.31</ele>
        <time>2023-07-23T07:24:26Z</time>
      </trkpt>
      <trkpt lat="44.71597" lon="-1.23222">
        <ele>8.31</ele>
        <time>2023-07-23T07:24:31Z</time>
      </trkpt>
      <trkpt lat="44.71584" lon="-1.23219">
        <ele>8.31</ele>
        <time>2023-07-23T07:24:41Z</time>
      </trkpt>
      <trkpt lat="44.71568" lon="-1.23222">
        <ele>8.31</ele>
        <time>2023-07-23T07:24:52Z</time>
      </trkpt>
      <trkpt lat="44.71554" lon="-1.23223">
        <ele>8.31</ele>
        <time>2023-07-23T07:25:03Z</time>
      </trkpt>
      <trkpt lat="44.71541" lon="-1.23225">
        <ele>7.83</ele>
        <time>2023-07-23T07:25:13Z</time>
      </trkpt>
      <trkpt lat="44.71522" lon="-1.23225">
        <ele>7.35</ele>
        <time>2023-07-23T07:25:26Z</time>
      </trkpt>
      <trkpt lat="44.71511" lon="-1.23226">
        <ele>8.31</ele>
        <time>2023-07-23T07:25:36Z</time>
      </trkpt>
      <trkpt lat="44.71499" lon="-1.23227">
        <ele>7.83</ele>
        <time>2023-07-23T07:25:47Z</time>
      </trkpt>
      <trkpt lat="44.71484" lon="-1.23233">
        <ele>10.23</ele>
        <time>2023-07-23T07:26:00Z</time>
      </trkpt>
      <trkpt lat="44.71472" lon="-1.23234">
        <ele>9.27</ele>
        <time>2023-07-23T07:26:10Z</time>
      </trkpt>
      <trkpt lat="44.71457" lon="-1.23235">
        <ele>9.27</ele>
        <time>2023-07-23T07:26:19Z</time>
      </trkpt>
      <trkpt lat="44.71457" lon="-1.2323">
        <ele>9.27</ele>
        <time>2023-07-23T07:26:25Z</time>
      </trkpt>
      <trkpt lat="44.71443" lon="-1.23228">
        <ele>8.31</ele>
        <time>2023-07-23T07:26:38Z</time>
      </trkpt>
      <trkpt lat="44.71423" lon="-1.23235">
        <ele>9.27</ele>
        <time>2023-07-23T07:26:51Z</time>
      </trkpt>
      <trkpt lat="44.7141" lon="-1.23232">
        <ele>9.75</ele>
        <time>2023-07-23T07:27:01Z</time>
      </trkpt>
      <trkpt lat="44.71403" lon="-1.23233">
        <ele>9.27</ele>
        <time>2023-07-23T07:27:07Z</time>
      </trkpt>
      <trkpt lat="44.71388" lon="-1.23244">
        <ele>8.79</ele>
        <time>2023-07-23T07:27:18Z</time>
      </trkpt>
      <trkpt lat="44.71374" lon="-1.23245">
        <ele>7.83</ele>
        <time>2023-07-23T07:27:28Z</time>
      </trkpt>
      <trkpt lat="44.71368" lon="-1.23244">
        <ele>7.83</ele>
        <time>2023-07-23T07:27:36Z</time>
      </trkpt>
      <trkpt lat="44.71356" lon="-1.23243">
        <ele>8.79</ele>
        <time>2023-07-23T07:27:46Z</time>
      </trkpt>
      <trkpt lat="44.71343" lon="-1.23245">
        <ele>8.79</ele>
        <time>2023-07-23T07:27:57Z</time>
      </trkpt>
      <trkpt lat="44.71343" lon="-1.23244">
        <ele>8.31</ele>
        <time>2023-07-23T07:28:00Z</time>
      </trkpt>
      <trkpt lat="44.71333" lon="-1.23248">
        <ele>8.79</ele>
        <time>2023-07-23T07:28:09Z</time>
      </trkpt>
      <trkpt lat="44.71329" lon="-1.23249">
        <ele>8.79</ele>
        <time>2023-07-23T07:28:16Z</time>
      </trkpt>
      <trkpt lat="44.71317" lon="-1.2325">
        <ele>9.27</ele>
        <time>2023-07-23T07:28:26Z</time>
      </trkpt>
      <trkpt lat="44.71302" lon="-1.23253">
        <ele>8.79</ele>
        <time>2023-07-23T07:28:35Z</time>
      </trkpt>
      <trkpt lat="44.71288" lon="-1.23255">
        <ele>8.79</ele>
        <time>2023-07-23T07:28:45Z</time>
      </trkpt>
      <trkpt lat="44.71274" lon="-1.23256">
        <ele>7.83</ele>
        <time>2023-07-23T07:28:53Z</time>
      </trkpt>
      <trkpt lat="44.71259" lon="-1.23262">
        <ele>7.83</ele>
        <time>2023-07-23T07:29:03Z</time>
      </trkpt>
      <trkpt lat="44.71243" lon="-1.23266">
        <ele>7.83</ele>
        <time>2023-07-23T07:29:14Z</time>
      </trkpt>
      <trkpt lat="44.71239" lon="-1.23274">
        <ele>8.31</ele>
        <time>2023-07-23T07:29:23Z</time>
      </trkpt>
      <trkpt lat="44.71248" lon="-1.23289">
        <ele>9.75</ele>
        <time>2023-07-23T07:29:33Z</time>
      </trkpt>
      <trkpt lat="44.71256" lon="-1.23299">
        <ele>10.71</ele>
        <time>2023-07-23T07:29:42Z</time>
      </trkpt>
      <trkpt lat="44.71264" lon="-1.23308">
        <ele>11.67</ele>
        <time>2023-07-23T07:29:52Z</time>
      </trkpt>
      <trkpt lat="44.71269" lon="-1.23321">
        <ele>12.63</ele>
        <time>2023-07-23T07:30:01Z</time>
      </trkpt>
      <trkpt lat="44.71275" lon="-1.23341">
        <ele>12.15</ele>
        <time>2023-07-23T07:30:13Z</time>
      </trkpt>
      <trkpt lat="44.71286" lon="-1.23354">
        <ele>11.67</ele>
        <time>2023-07-23T07:30:23Z</time>
      </trkpt>
      <trkpt lat="44.71294" lon="-1.23368">
        <ele>12.15</ele>
        <time>2023-07-23T07:30:32Z</time>
      </trkpt>
      <trkpt lat="44.71297" lon="-1.23389">
        <ele>13.12</ele>
        <time>2023-07-23T07:30:42Z</time>
      </trkpt>
      <trkpt lat="44.71296" lon="-1.23416">
        <ele>13.6</ele>
        <time>2023-07-23T07:30:55Z</time>
      </trkpt>
      <trkpt lat="44.71294" lon="-1.23432">
        <ele>13.6</ele>
        <time>2023-07-23T07:31:05Z</time>
      </trkpt>
      <trkpt lat="44.71296" lon="-1.23445">
        <ele>12.63</ele>
        <time>2023-07-23T07:31:11Z</time>
      </trkpt>
      <trkpt lat="44.71305" lon="-1.23466">
        <ele>12.15</ele>
        <time>2023-07-23T07:31:24Z</time>
      </trkpt>
      <trkpt lat="44.71316" lon="-1.23484">
        <ele>13.6</ele>
        <time>2023-07-23T07:31:34Z</time>
      </trkpt>
      <trkpt lat="44.71326" lon="-1.23491">
        <ele>13.12</ele>
        <time>2023-07-23T07:31:43Z</time>
      </trkpt>
      <trkpt lat="44.71335" lon="-1.23505">
        <ele>14.08</ele>
        <time>2023-07-23T07:31:54Z</time>
      </trkpt>
      <trkpt lat="44.71347" lon="-1.2352">
        <ele>14.56</ele>
        <time>2023-07-23T07:32:06Z</time>
      </trkpt>
      <trkpt lat="44.71349" lon="-1.23521">
        <ele>14.08</ele>
        <time>2023-07-23T07:32:07Z</time>
      </trkpt>
      <trkpt lat="44.71356" lon="-1.23534">
        <ele>14.56</ele>
        <time>2023-07-23T07:32:16Z</time>
      </trkpt>
      <trkpt lat="44.71362" lon="-1.23551">
        <ele>14.56</ele>
        <time>2023-07-23T07:32:26Z</time>
      </trkpt>
      <trkpt lat="44.71363" lon="-1.2357">
        <ele>13.6</ele>
        <time>2023-07-23T07:32:36Z</time>
      </trkpt>
      <trkpt lat="44.71362" lon="-1.23594">
        <ele>14.56</ele>
        <time>2023-07-23T07:32:48Z</time>
      </trkpt>
      <trkpt lat="44.71359" lon="-1.23608">
        <ele>14.08</ele>
        <time>2023-07-23T07:32:54Z</time>
      </trkpt>
      <trkpt lat="44.71349" lon="-1.23628">
        <ele>14.56</ele>
        <time>2023-07-23T07:33:04Z</time>
      </trkpt>
      <trkpt lat="44.7134" lon="-1.2365">
        <ele>14.08</ele>
        <time>2023-07-23T07:33:16Z</time>
      </trkpt>
      <trkpt lat="44.71334" lon="-1.23658">
        <ele>14.08</ele>
        <time>2023-07-23T07:33:26Z</time>
      </trkpt>
      <trkpt lat="44.71332" lon="-1.23655">
        <ele>13.6</ele>
        <time>2023-07-23T07:33:38Z</time>
      </trkpt>
      <trkpt lat="44.7133" lon="-1.23678">
        <ele>12.15</ele>
        <time>2023-07-23T07:33:51Z</time>
      </trkpt>
      <trkpt lat="44.71329" lon="-1.23697">
        <ele>11.19</ele>
        <time>2023-07-23T07:34:04Z</time>
      </trkpt>
      <trkpt lat="44.71327" lon="-1.23717">
        <ele>10.23</ele>
        <time>2023-07-23T07:34:12Z</time>
      </trkpt>
      <trkpt lat="44.71321" lon="-1.23734">
        <ele>10.23</ele>
        <time>2023-07-23T07:34:24Z</time>
      </trkpt>
      <trkpt lat="44.71309" lon="-1.23751">
        <ele>10.71</ele>
        <time>2023-07-23T07:34:36Z</time>
      </trkpt>
      <trkpt lat="44.71304" lon="-1.23763">
        <ele>11.67</ele>
        <time>2023-07-23T07:34:43Z</time>
      </trkpt>
      <trkpt lat="44.71295" lon="-1.23772">
        <ele>13.12</ele>
        <time>2023-07-23T07:34:52Z</time>
      </trkpt>
      <trkpt lat="44.71281" lon="-1.23781">
        <ele>12.15</ele>
        <time>2023-07-23T07:35:01Z</time>
      </trkpt>
      <trkpt lat="44.71271" lon="-1.23786">
        <ele>11.19</ele>
        <time>2023-07-23T07:35:09Z</time>
      </trkpt>
      <trkpt lat="44.71259" lon="-1.23792">
        <ele>9.75</ele>
        <time>2023-07-23T07:35:20Z</time>
      </trkpt>
      <trkpt lat="44.71242" lon="-1.23805">
        <ele>10.23</ele>
        <time>2023-07-23T07:35:34Z</time>
      </trkpt>
      <trkpt lat="44.71231" lon="-1.23821">
        <ele>10.71</ele>
        <time>2023-07-23T07:35:45Z</time>
      </trkpt>
      <trkpt lat="44.71225" lon="-1.23838">
        <ele>9.75</ele>
        <time>2023-07-23T07:35:54Z</time>
      </trkpt>
      <trkpt lat="44.71219" lon="-1.23847">
        <ele>9.27</ele>
        <time>2023-07-23T07:36:04Z</time>
      </trkpt>
      <trkpt lat="44.71214" lon="-1.23849">
        <ele>9.27</ele>
        <time>2023-07-23T07:36:16Z</time>
      </trkpt>
      <trkpt lat="44.71212" lon="-1.23872">
        <ele>8.31</ele>
        <time>2023-07-23T07:36:27Z</time>
      </trkpt>
      <trkpt lat="44.71212" lon="-1.23874">
        <ele>8.79</ele>
        <time>2023-07-23T07:36:28Z</time>
      </trkpt>
      <trkpt lat="44.71215" lon="-1.23904">
        <ele>8.79</ele>
        <time>2023-07-23T07:36:39Z</time>
      </trkpt>
      <trkpt lat="44.71213" lon="-1.23908">
        <ele>8.79</ele>
        <time>2023-07-23T07:36:43Z</time>
      </trkpt>
      <trkpt lat="44.71214" lon="-1.23916">
        <ele>7.83</ele>
        <time>2023-07-23T07:36:48Z</time>
      </trkpt>
      <trkpt lat="44.71215" lon="-1.23933">
        <ele>7.83</ele>
        <time>2023-07-23T07:36:57Z</time>
      </trkpt>
      <trkpt lat="44.71221" lon="-1.23955">
        <ele>7.35</ele>
        <time>2023-07-23T07:37:08Z</time>
      </trkpt>
      <trkpt lat="44.71223" lon="-1.23959">
        <ele>6.87</ele>
        <time>2023-07-23T07:37:10Z</time>
      </trkpt>
      <trkpt lat="44.71233" lon="-1.23979">
        <ele>7.35</ele>
        <time>2023-07-23T07:37:23Z</time>
      </trkpt>
      <trkpt lat="44.71245" lon="-1.23994">
        <ele>6.87</ele>
        <time>2023-07-23T07:37:34Z</time>
      </trkpt>
      <trkpt lat="44.71259" lon="-1.24014">
        <ele>6.39</ele>
        <time>2023-07-23T07:37:48Z</time>
      </trkpt>
      <trkpt lat="44.71267" lon="-1.24032">
        <ele>5.91</ele>
        <time>2023-07-23T07:37:59Z</time>
      </trkpt>
      <trkpt lat="44.71274" lon="-1.24051">
        <ele>5.91</ele>
        <time>2023-07-23T07:38:10Z</time>
      </trkpt>
      <trkpt lat="44.7128" lon="-1.24066">
        <ele>5.42</ele>
        <time>2023-07-23T07:38:21Z</time>
      </trkpt>
      <trkpt lat="44.71288" lon="-1.24081">
        <ele>5.91</ele>
        <time>2023-07-23T07:38:32Z</time>
      </trkpt>
      <trkpt lat="44.71298" lon="-1.24093">
        <ele>5.91</ele>
        <time>2023-07-23T07:38:43Z</time>
      </trkpt>
      <trkpt lat="44.71311" lon="-1.24106">
        <ele>5.42</ele>
        <time>2023-07-23T07:38:54Z</time>
      </trkpt>
      <trkpt lat="44.71319" lon="-1.24116">
        <ele>5.42</ele>
        <time>2023-07-23T07:39:05Z</time>
      </trkpt>
      <trkpt lat="44.71324" lon="-1.2413">
        <ele>5.42</ele>
        <time>2023-07-23T07:39:16Z</time>
      </trkpt>
      <trkpt lat="44.7133" lon="-1.24144">
        <ele>5.91</ele>
        <time>2023-07-23T07:39:27Z</time>
      </trkpt>
      <trkpt lat="44.71336" lon="-1.24147">
        <ele>5.42</ele>
        <time>2023-07-23T07:39:36Z</time>
      </trkpt>
      <trkpt lat="44.7134" lon="-1.24155">
        <ele>5.91</ele>
        <time>2023-07-23T07:39:45Z</time>
      </trkpt>
      <trkpt lat="44.71349" lon="-1.24168">
        <ele>5.42</ele>
        <time>2023-07-23T07:39:55Z</time>
      </trkpt>
      <trkpt lat="44.7136" lon="-1.24183">
        <ele>5.91</ele>
        <time>2023-07-23T07:40:06Z</time>
      </trkpt>
      <trkpt lat="44.71369" lon="-1.24181">
        <ele>6.39</ele>
        <time>2023-07-23T07:40:15Z</time>
      </trkpt>
      <trkpt lat="44.71384" lon="-1.24175">
        <ele>5.91</ele>
        <time>2023-07-23T07:40:27Z</time>
      </trkpt>
      <trkpt lat="44.71388" lon="-1.24174">
        <ele>5.91</ele>
        <time>2023-07-23T07:40:35Z</time>
      </trkpt>
      <trkpt lat="44.71386" lon="-1.24175">
        <ele>6.39</ele>
        <time>2023-07-23T07:40:36Z</time>
      </trkpt>
      <trkpt lat="44.71374" lon="-1.24188">
        <ele>6.87</ele>
        <time>2023-07-23T07:40:46Z</time>
      </trkpt>
      <trkpt lat="44.71371" lon="-1.24192">
        <ele>5.42</ele>
        <time>2023-07-23T07:40:49Z</time>
      </trkpt>
      <trkpt lat="44.7137" lon="-1.24211">
        <ele>6.87</ele>
        <time>2023-07-23T07:41:00Z</time>
      </trkpt>
      <trkpt lat="44.71375" lon="-1.24233">
        <ele>6.39</ele>
        <time>2023-07-23T07:41:11Z</time>
      </trkpt>
      <trkpt lat="44.71386" lon="-1.24252">
        <ele>5.91</ele>
        <time>2023-07-23T07:41:23Z</time>
      </trkpt>
      <trkpt lat="44.71396" lon="-1.24266">
        <ele>6.87</ele>
        <time>2023-07-23T07:41:32Z</time>
      </trkpt>
      <trkpt lat="44.71408" lon="-1.24285">
        <ele>5.91</ele>
        <time>2023-07-23T07:41:45Z</time>
      </trkpt>
      <trkpt lat="44.71414" lon="-1.24297">
        <ele>5.91</ele>
        <time>2023-07-23T07:41:57Z</time>
      </trkpt>
      <trkpt lat="44.71419" lon="-1.24317">
        <ele>5.91</ele>
        <time>2023-07-23T07:42:08Z</time>
      </trkpt>
      <trkpt lat="44.71418" lon="-1.24334">
        <ele>5.91</ele>
        <time>2023-07-23T07:42:18Z</time>
      </trkpt>
      <trkpt lat="44.71421" lon="-1.24352">
        <ele>5.91</ele>
        <time>2023-07-23T07:42:28Z</time>
      </trkpt>
      <trkpt lat="44.71419" lon="-1.24371">
        <ele>6.39</ele>
        <time>2023-07-23T07:42:40Z</time>
      </trkpt>
      <trkpt lat="44.71417" lon="-1.2439">
        <ele>5.91</ele>
        <time>2023-07-23T07:42:49Z</time>
      </trkpt>
      <trkpt lat="44.71415" lon="-1.24395">
        <ele>6.39</ele>
        <time>2023-07-23T07:42:52Z</time>
      </trkpt>
      <trkpt lat="44.71416" lon="-1.24419">
        <ele>6.39</ele>
        <time>2023-07-23T07:43:03Z</time>
      </trkpt>
      <trkpt lat="44.71419" lon="-1.24427">
        <ele>6.39</ele>
        <time>2023-07-23T07:43:12Z</time>
      </trkpt>
      <trkpt lat="44.71426" lon="-1.24438">
        <ele>6.39</ele>
        <time>2023-07-23T07:43:24Z</time>
      </trkpt>
      <trkpt lat="44.71431" lon="-1.24441">
        <ele>6.87</ele>
        <time>2023-07-23T07:43:37Z</time>
      </trkpt>
      <trkpt lat="44.71432" lon="-1.24437">
        <ele>6.87</ele>
        <time>2023-07-23T07:43:50Z</time>
      </trkpt>
      <trkpt lat="44.71432" lon="-1.24436">
        <ele>6.39</ele>
        <time>2023-07-23T07:44:04Z</time>
      </trkpt>
      <trkpt lat="44.71431" lon="-1.24433">
        <ele>5.91</ele>
        <time>2023-07-23T07:44:20Z</time>
      </trkpt>
      <trkpt lat="44.7143" lon="-1.24432">
        <ele>5.91</ele>
        <time>2023-07-23T07:44:34Z</time>
      </trkpt>
      <trkpt lat="44.7143" lon="-1.2443">
        <ele>5.91</ele>
        <time>2023-07-23T07:44:47Z</time>
      </trkpt>
      <trkpt lat="44.7143" lon="-1.24432">
        <ele>5.91</ele>
        <time>2023-07-23T07:45:04Z</time>
      </trkpt>
      <trkpt lat="44.71429" lon="-1.24424">
        <ele>5.91</ele>
        <time>2023-07-23T07:45:15Z</time>
      </trkpt>
      <trkpt lat="44.71428" lon="-1.24421">
        <ele>5.91</ele>
        <time>2023-07-23T07:45:27Z</time>
      </trkpt>
      <trkpt lat="44.71427" lon="-1.24419">
        <ele>5.42</ele>
        <time>2023-07-23T07:45:41Z</time>
      </trkpt>
      <trkpt lat="44.71427" lon="-1.24418">
        <ele>5.91</ele>
        <time>2023-07-23T07:45:55Z</time>
      </trkpt>
      <trkpt lat="44.71428" lon="-1.2442">
        <ele>5.42</ele>
        <time>2023-07-23T07:46:07Z</time>
      </trkpt>
      <trkpt lat="44.71433" lon="-1.24425">
        <ele>5.42</ele>
        <time>2023-07-23T07:46:19Z</time>
      </trkpt>
      <trkpt lat="44.71436" lon="-1.24432">
        <ele>5.91</ele>
        <time>2023-07-23T07:46:24Z</time>
      </trkpt>
      <trkpt lat="44.71445" lon="-1.24447">
        <ele>5.91</ele>
        <time>2023-07-23T07:46:35Z</time>
      </trkpt>
      <trkpt lat="44.71454" lon="-1.24457">
        <ele>7.35</ele>
        <time>2023-07-23T07:46:44Z</time>
      </trkpt>
      <trkpt lat="44.71462" lon="-1.24473">
        <ele>7.35</ele>
        <time>2023-07-23T07:46:58Z</time>
      </trkpt>
      <trkpt lat="44.7147" lon="-1.24487">
        <ele>7.83</ele>
        <time>2023-07-23T07:47:08Z</time>
      </trkpt>
      <trkpt lat="44.71476" lon="-1.245">
        <ele>8.31</ele>
        <time>2023-07-23T07:47:18Z</time>
      </trkpt>
      <trkpt lat="44.71484" lon="-1.24511">
        <ele>8.31</ele>
        <time>2023-07-23T07:47:30Z</time>
      </trkpt>
      <trkpt lat="44.71489" lon="-1.24525">
        <ele>8.79</ele>
        <time>2023-07-23T07:47:40Z</time>
      </trkpt>
      <trkpt lat="44.71495" lon="-1.2454">
        <ele>9.27</ele>
        <time>2023-07-23T07:47:50Z</time>
      </trkpt>
      <trkpt lat="44.71502" lon="-1.24556">
        <ele>10.23</ele>
        <time>2023-07-23T07:48:02Z</time>
      </trkpt>
      <trkpt lat="44.71502" lon="-1.24569">
        <ele>11.19</ele>
        <time>2023-07-23T07:48:13Z</time>
      </trkpt>
      <trkpt lat="44.71501" lon="-1.2458">
        <ele>11.67</ele>
        <time>2023-07-23T07:48:25Z</time>
      </trkpt>
      <trkpt lat="44.71496" lon="-1.24608">
        <ele>12.63</ele>
        <time>2023-07-23T07:48:37Z</time>
      </trkpt>
      <trkpt lat="44.71493" lon="-1.24637">
        <ele>13.12</ele>
        <time>2023-07-23T07:48:50Z</time>
      </trkpt>
      <trkpt lat="44.71497" lon="-1.24651">
        <ele>13.12</ele>
        <time>2023-07-23T07:49:00Z</time>
      </trkpt>
      <trkpt lat="44.71501" lon="-1.24671">
        <ele>14.56</ele>
        <time>2023-07-23T07:49:12Z</time>
      </trkpt>
      <trkpt lat="44.71503" lon="-1.24696">
        <ele>15.52</ele>
        <time>2023-07-23T07:49:27Z</time>
      </trkpt>
      <trkpt lat="44.71505" lon="-1.24718">
        <ele>17.44</ele>
        <time>2023-07-23T07:49:42Z</time>
      </trkpt>
      <trkpt lat="44.71507" lon="-1.24731">
        <ele>19.36</ele>
        <time>2023-07-23T07:49:53Z</time>
      </trkpt>
      <trkpt lat="44.71507" lon="-1.24749">
        <ele>20.32</ele>
        <time>2023-07-23T07:50:05Z</time>
      </trkpt>
      <trkpt lat="44.71504" lon="-1.24758">
        <ele>20.81</ele>
        <time>2023-07-23T07:50:11Z</time>
      </trkpt>
      <trkpt lat="44.71493" lon="-1.24778">
        <ele>22.25</ele>
        <time>2023-07-23T07:50:26Z</time>
      </trkpt>
      <trkpt lat="44.71482" lon="-1.24792">
        <ele>22.73</ele>
        <time>2023-07-23T07:50:38Z</time>
      </trkpt>
      <trkpt lat="44.71474" lon="-1.24809">
        <ele>23.21</ele>
        <time>2023-07-23T07:50:50Z</time>
      </trkpt>
      <trkpt lat="44.71474" lon="-1.24829">
        <ele>23.69</ele>
        <time>2023-07-23T07:51:02Z</time>
      </trkpt>
      <trkpt lat="44.71475" lon="-1.24849">
        <ele>24.17</ele>
        <time>2023-07-23T07:51:14Z</time>
      </trkpt>
      <trkpt lat="44.71479" lon="-1.24872">
        <ele>23.21</ele>
        <time>2023-07-23T07:51:29Z</time>
      </trkpt>
      <trkpt lat="44.71483" lon="-1.24889">
        <ele>22.73</ele>
        <time>2023-07-23T07:51:39Z</time>
      </trkpt>
      <trkpt lat="44.71487" lon="-1.24907">
        <ele>21.29</ele>
        <time>2023-07-23T07:51:50Z</time>
      </trkpt>
      <trkpt lat="44.71493" lon="-1.24925">
        <ele>19.84</ele>
        <time>2023-07-23T07:52:02Z</time>
      </trkpt>
      <trkpt lat="44.71494" lon="-1.24932">
        <ele>19.84</ele>
        <time>2023-07-23T07:52:10Z</time>
      </trkpt>
      <trkpt lat="44.71492" lon="-1.24945">
        <ele>18.4</ele>
        <time>2023-07-23T07:52:20Z</time>
      </trkpt>
      <trkpt lat="44.71493" lon="-1.24958">
        <ele>17.44</ele>
        <time>2023-07-23T07:52:28Z</time>
      </trkpt>
      <trkpt lat="44.71495" lon="-1.24979">
        <ele>15.52</ele>
        <time>2023-07-23T07:52:42Z</time>
      </trkpt>
      <trkpt lat="44.71498" lon="-1.2499">
        <ele>13.6</ele>
        <time>2023-07-23T07:52:50Z</time>
      </trkpt>
      <trkpt lat="44.715" lon="-1.25004">
        <ele>12.63</ele>
        <time>2023-07-23T07:52:59Z</time>
      </trkpt>
      <trkpt lat="44.71502" lon="-1.25021">
        <ele>10.71</ele>
        <time>2023-07-23T07:53:10Z</time>
      </trkpt>
      <trkpt lat="44.71503" lon="-1.2503">
        <ele>9.75</ele>
        <time>2023-07-23T07:53:21Z</time>
      </trkpt>
      <trkpt lat="44.71503" lon="-1.2503">
        <ele>10.23</ele>
        <time>2023-07-23T07:53:32Z</time>
      </trkpt>
      <trkpt lat="44.71503" lon="-1.2503">
        <ele>9.75</ele>
        <time>2023-07-23T07:53:47Z</time>
      </trkpt>
      <trkpt lat="44.71505" lon="-1.25031">
        <ele>10.23</ele>
        <time>2023-07-23T07:54:02Z</time>
      </trkpt>
      <trkpt lat="44.71505" lon="-1.25032">
        <ele>10.23</ele>
        <time>2023-07-23T07:54:09Z</time>
      </trkpt>
      <trkpt lat="44.71504" lon="-1.25035">
        <ele>8.79</ele>
        <time>2023-07-23T07:54:20Z</time>
      </trkpt>
      <trkpt lat="44.71505" lon="-1.25051">
        <ele>7.83</ele>
        <time>2023-07-23T07:54:31Z</time>
      </trkpt>
      <trkpt lat="44.7151" lon="-1.25065">
        <ele>6.39</ele>
        <time>2023-07-23T07:54:42Z</time>
      </trkpt>
      <trkpt lat="44.71512" lon="-1.25077">
        <ele>5.91</ele>
        <time>2023-07-23T07:54:52Z</time>
      </trkpt>
      <trkpt lat="44.71508" lon="-1.25093">
        <ele>4.94</ele>
        <time>2023-07-23T07:55:03Z</time>
      </trkpt>
      <trkpt lat="44.71508" lon="-1.25104">
        <ele>4.46</ele>
        <time>2023-07-23T07:55:11Z</time>
      </trkpt>
      <trkpt lat="44.71507" lon="-1.25113">
        <ele>4.94</ele>
        <time>2023-07-23T07:55:20Z</time>
      </trkpt>
      <trkpt lat="44.71509" lon="-1.25122">
        <ele>4.94</ele>
        <time>2023-07-23T07:55:29Z</time>
      </trkpt>
      <trkpt lat="44.7151" lon="-1.2513">
        <ele>4.46</ele>
        <time>2023-07-23T07:55:37Z</time>
      </trkpt>
      <trkpt lat="44.71508" lon="-1.25139">
        <ele>3.5</ele>
        <time>2023-07-23T07:55:43Z</time>
      </trkpt>
      <trkpt lat="44.71501" lon="-1.25147">
        <ele>3.5</ele>
        <time>2023-07-23T07:55:53Z</time>
      </trkpt>
      <trkpt lat="44.71488" lon="-1.25152">
        <ele>3.5</ele>
        <time>2023-07-23T07:56:04Z</time>
      </trkpt>
      <trkpt lat="44.71477" lon="-1.25155">
        <ele>3.5</ele>
        <time>2023-07-23T07:56:14Z</time>
      </trkpt>
      <trkpt lat="44.71467" lon="-1.2516">
        <ele>3.5</ele>
        <time>2023-07-23T07:56:23Z</time>
      </trkpt>
      <trkpt lat="44.71462" lon="-1.25161">
        <ele>3.98</ele>
        <time>2023-07-23T07:56:27Z</time>
      </trkpt>
      <trkpt lat="44.71458" lon="-1.25162">
        <ele>3.5</ele>
        <time>2023-07-23T07:56:34Z</time>
      </trkpt>
      <trkpt lat="44.71451" lon="-1.25164">
        <ele>3.5</ele>
        <time>2023-07-23T07:56:40Z</time>
      </trkpt>
      <trkpt lat="44.71441" lon="-1.25166">
        <ele>3.98</ele>
        <time>2023-07-23T07:56:47Z</time>
      </trkpt>
      <trkpt lat="44.71424" lon="-1.25171">
        <ele>3.02</ele>
        <time>2023-07-23T07:56:59Z</time>
      </trkpt>
      <trkpt lat="44.71409" lon="-1.2517">
        <ele>2.54</ele>
        <time>2023-07-23T07:57:09Z</time>
      </trkpt>
      <trkpt lat="44.714" lon="-1.2517">
        <ele>3.5</ele>
        <time>2023-07-23T07:57:16Z</time>
      </trkpt>
      <trkpt lat="44.71387" lon="-1.25171">
        <ele>3.5</ele>
        <time>2023-07-23T07:57:27Z</time>
      </trkpt>
      <trkpt lat="44.71375" lon="-1.25173">
        <ele>3.5</ele>
        <time>2023-07-23T07:57:37Z</time>
      </trkpt>
      <trkpt lat="44.7136" lon="-1.25174">
        <ele>3.5</ele>
        <time>2023-07-23T07:57:48Z</time>
      </trkpt>
      <trkpt lat="44.71358" lon="-1.25176">
        <ele>3.5</ele>
        <time>2023-07-23T07:57:53Z</time>
      </trkpt>
      <trkpt lat="44.71357" lon="-1.25176">
        <ele>3.02</ele>
        <time>2023-07-23T07:57:54Z</time>
      </trkpt>
      <trkpt lat="44.71355" lon="-1.25175">
        <ele>3.98</ele>
        <time>2023-07-23T07:57:56Z</time>
      </trkpt>
      <trkpt lat="44.71349" lon="-1.25175">
        <ele>3.5</ele>
        <time>2023-07-23T07:58:00Z</time>
      </trkpt>
      <trkpt lat="44.71334" lon="-1.25176">
        <ele>3.02</ele>
        <time>2023-07-23T07:58:11Z</time>
      </trkpt>
      <trkpt lat="44.71321" lon="-1.25177">
        <ele>3.5</ele>
        <time>2023-07-23T07:58:21Z</time>
      </trkpt>
      <trkpt lat="44.71311" lon="-1.25177">
        <ele>3.5</ele>
        <time>2023-07-23T07:58:30Z</time>
      </trkpt>
      <trkpt lat="44.71308" lon="-1.25177">
        <ele>3.02</ele>
        <time>2023-07-23T07:58:33Z</time>
      </trkpt>
      <trkpt lat="44.71293" lon="-1.25178">
        <ele>3.5</ele>
        <time>2023-07-23T07:58:44Z</time>
      </trkpt>
      <trkpt lat="44.71281" lon="-1.2518">
        <ele>3.98</ele>
        <time>2023-07-23T07:58:53Z</time>
      </trkpt>
      <trkpt lat="44.71266" lon="-1.25185">
        <ele>3.5</ele>
        <time>2023-07-23T07:59:04Z</time>
      </trkpt>
      <trkpt lat="44.71254" lon="-1.25188">
        <ele>3.02</ele>
        <time>2023-07-23T07:59:13Z</time>
      </trkpt>
      <trkpt lat="44.71241" lon="-1.2519">
        <ele>2.54</ele>
        <time>2023-07-23T07:59:23Z</time>
      </trkpt>
      <trkpt lat="44.71226" lon="-1.25194">
        <ele>3.5</ele>
        <time>2023-07-23T07:59:34Z</time>
      </trkpt>
      <trkpt lat="44.71212" lon="-1.25197">
        <ele>3.02</ele>
        <time>2023-07-23T07:59:44Z</time>
      </trkpt>
      <trkpt lat="44.71198" lon="-1.25203">
        <ele>3.02</ele>
        <time>2023-07-23T07:59:55Z</time>
      </trkpt>
      <trkpt lat="44.71182" lon="-1.25208">
        <ele>2.54</ele>
        <time>2023-07-23T08:00:07Z</time>
      </trkpt>
      <trkpt lat="44.71162" lon="-1.25214">
        <ele>3.02</ele>
        <time>2023-07-23T08:00:21Z</time>
      </trkpt>
      <trkpt lat="44.71146" lon="-1.25212">
        <ele>3.02</ele>
        <time>2023-07-23T08:00:31Z</time>
      </trkpt>
      <trkpt lat="44.71132" lon="-1.25206">
        <ele>3.02</ele>
        <time>2023-07-23T08:00:41Z</time>
      </trkpt>
      <trkpt lat="44.7112" lon="-1.252">
        <ele>2.54</ele>
        <time>2023-07-23T08:00:50Z</time>
      </trkpt>
      <trkpt lat="44.71112" lon="-1.25197">
        <ele>3.02</ele>
        <time>2023-07-23T08:00:56Z</time>
      </trkpt>
      <trkpt lat="44.71099" lon="-1.25198">
        <ele>3.02</ele>
        <time>2023-07-23T08:01:05Z</time>
      </trkpt>
      <trkpt lat="44.71085" lon="-1.25202">
        <ele>3.02</ele>
        <time>2023-07-23T08:01:14Z</time>
      </trkpt>
      <trkpt lat="44.7108" lon="-1.25203">
        <ele>3.02</ele>
        <time>2023-07-23T08:01:18Z</time>
      </trkpt>
      <trkpt lat="44.71066" lon="-1.2521">
        <ele>3.02</ele>
        <time>2023-07-23T08:01:29Z</time>
      </trkpt>
      <trkpt lat="44.71054" lon="-1.25214">
        <ele>3.02</ele>
        <time>2023-07-23T08:01:39Z</time>
      </trkpt>
      <trkpt lat="44.71039" lon="-1.2522">
        <ele>3.5</ele>
        <time>2023-07-23T08:01:50Z</time>
      </trkpt>
      <trkpt lat="44.71026" lon="-1.25224">
        <ele>3.5</ele>
        <time>2023-07-23T08:02:00Z</time>
      </trkpt>
      <trkpt lat="44.71014" lon="-1.25227">
        <ele>3.02</ele>
        <time>2023-07-23T08:02:08Z</time>
      </trkpt>
      <trkpt lat="44.71002" lon="-1.2523">
        <ele>2.54</ele>
        <time>2023-07-23T08:02:17Z</time>
      </trkpt>
      <trkpt lat="44.7099" lon="-1.25231">
        <ele>3.02</ele>
        <time>2023-07-23T08:02:26Z</time>
      </trkpt>
      <trkpt lat="44.70978" lon="-1.25236">
        <ele>2.54</ele>
        <time>2023-07-23T08:02:36Z</time>
      </trkpt>
      <trkpt lat="44.70965" lon="-1.25241">
        <ele>2.54</ele>
        <time>2023-07-23T08:02:46Z</time>
      </trkpt>
      <trkpt lat="44.70951" lon="-1.25244">
        <ele>2.54</ele>
        <time>2023-07-23T08:02:55Z</time>
      </trkpt>
      <trkpt lat="44.70937" lon="-1.25241">
        <ele>2.54</ele>
        <time>2023-07-23T08:03:03Z</time>
      </trkpt>
      <trkpt lat="44.70926" lon="-1.25242">
        <ele>2.54</ele>
        <time>2023-07-23T08:03:12Z</time>
      </trkpt>
      <trkpt lat="44.70916" lon="-1.25244">
        <ele>2.06</ele>
        <time>2023-07-23T08:03:21Z</time>
      </trkpt>
      <trkpt lat="44.70903" lon="-1.25249">
        <ele>3.02</ele>
        <time>2023-07-23T08:03:31Z</time>
      </trkpt>
      <trkpt lat="44.7089" lon="-1.25253">
        <ele>3.02</ele>
        <time>2023-07-23T08:03:39Z</time>
      </trkpt>
      <trkpt lat="44.70874" lon="-1.25257">
        <ele>3.02</ele>
        <time>2023-07-23T08:03:49Z</time>
      </trkpt>
      <trkpt lat="44.7086" lon="-1.25259">
        <ele>3.02</ele>
        <time>2023-07-23T08:03:59Z</time>
      </trkpt>
      <trkpt lat="44.70848" lon="-1.25261">
        <ele>2.54</ele>
        <time>2023-07-23T08:04:08Z</time>
      </trkpt>
      <trkpt lat="44.70835" lon="-1.25266">
        <ele>2.54</ele>
        <time>2023-07-23T08:04:18Z</time>
      </trkpt>
      <trkpt lat="44.70824" lon="-1.25268">
        <ele>2.54</ele>
        <time>2023-07-23T08:04:26Z</time>
      </trkpt>
      <trkpt lat="44.70811" lon="-1.25269">
        <ele>2.06</ele>
        <time>2023-07-23T08:04:34Z</time>
      </trkpt>
      <trkpt lat="44.70792" lon="-1.25273">
        <ele>2.06</ele>
        <time>2023-07-23T08:04:46Z</time>
      </trkpt>
      <trkpt lat="44.70778" lon="-1.25275">
        <ele>2.06</ele>
        <time>2023-07-23T08:04:55Z</time>
      </trkpt>
      <trkpt lat="44.70768" lon="-1.25273">
        <ele>2.54</ele>
        <time>2023-07-23T08:05:03Z</time>
      </trkpt>
      <trkpt lat="44.70755" lon="-1.25273">
        <ele>2.06</ele>
        <time>2023-07-23T08:05:12Z</time>
      </trkpt>
      <trkpt lat="44.70747" lon="-1.25274">
        <ele>2.54</ele>
        <time>2023-07-23T08:05:20Z</time>
      </trkpt>
      <trkpt lat="44.70735" lon="-1.25278">
        <ele>3.02</ele>
        <time>2023-07-23T08:05:29Z</time>
      </trkpt>
      <trkpt lat="44.70721" lon="-1.25281">
        <ele>2.54</ele>
        <time>2023-07-23T08:05:39Z</time>
      </trkpt>
      <trkpt lat="44.70706" lon="-1.25284">
        <ele>2.54</ele>
        <time>2023-07-23T08:05:49Z</time>
      </trkpt>
      <trkpt lat="44.70694" lon="-1.25283">
        <ele>2.54</ele>
        <time>2023-07-23T08:05:57Z</time>
      </trkpt>
      <trkpt lat="44.70689" lon="-1.25283">
        <ele>2.54</ele>
        <time>2023-07-23T08:06:01Z</time>
      </trkpt>
      <trkpt lat="44.70676" lon="-1.25284">
        <ele>2.06</ele>
        <time>2023-07-23T08:06:10Z</time>
      </trkpt>
      <trkpt lat="44.70663" lon="-1.25285">
        <ele>2.54</ele>
        <time>2023-07-23T08:06:19Z</time>
      </trkpt>
      <trkpt lat="44.70653" lon="-1.25287">
        <ele>2.54</ele>
        <time>2023-07-23T08:06:26Z</time>
      </trkpt>
      <trkpt lat="44.70643" lon="-1.2529">
        <ele>2.54</ele>
        <time>2023-07-23T08:06:35Z</time>
      </trkpt>
      <trkpt lat="44.70641" lon="-1.2529">
        <ele>2.54</ele>
        <time>2023-07-23T08:06:37Z</time>
      </trkpt>
      <trkpt lat="44.70628" lon="-1.25292">
        <ele>2.54</ele>
        <time>2023-07-23T08:06:47Z</time>
      </trkpt>
      <trkpt lat="44.70613" lon="-1.25294">
        <ele>2.54</ele>
        <time>2023-07-23T08:06:56Z</time>
      </trkpt>
      <trkpt lat="44.70601" lon="-1.25297">
        <ele>2.54</ele>
        <time>2023-07-23T08:07:04Z</time>
      </trkpt>
      <trkpt lat="44.7059" lon="-1.25297">
        <ele>2.54</ele>
        <time>2023-07-23T08:07:12Z</time>
      </trkpt>
      <trkpt lat="44.70579" lon="-1.25302">
        <ele>2.06</ele>
        <time>2023-07-23T08:07:21Z</time>
      </trkpt>
      <trkpt lat="44.70567" lon="-1.25305">
        <ele>2.06</ele>
        <time>2023-07-23T08:07:32Z</time>
      </trkpt>
      <trkpt lat="44.70564" lon="-1.25306">
        <ele>2.06</ele>
        <time>2023-07-23T08:07:34Z</time>
      </trkpt>
      <trkpt lat="44.70548" lon="-1.25308">
        <ele>2.06</ele>
        <time>2023-07-23T08:07:45Z</time>
      </trkpt>
      <trkpt lat="44.70535" lon="-1.25309">
        <ele>2.54</ele>
        <time>2023-07-23T08:07:55Z</time>
      </trkpt>
      <trkpt lat="44.70528" lon="-1.25312">
        <ele>2.54</ele>
        <time>2023-07-23T08:08:03Z</time>
      </trkpt>
      <trkpt lat="44.70527" lon="-1.25312">
        <ele>2.06</ele>
        <time>2023-07-23T08:08:04Z</time>
      </trkpt>
      <trkpt lat="44.70513" lon="-1.25315">
        <ele>2.54</ele>
        <time>2023-07-23T08:08:15Z</time>
      </trkpt>
      <trkpt lat="44.705" lon="-1.25319">
        <ele>3.02</ele>
        <time>2023-07-23T08:08:26Z</time>
      </trkpt>
      <trkpt lat="44.70486" lon="-1.25322">
        <ele>2.54</ele>
        <time>2023-07-23T08:08:36Z</time>
      </trkpt>
      <trkpt lat="44.70477" lon="-1.25324">
        <ele>2.06</ele>
        <time>2023-07-23T08:08:43Z</time>
      </trkpt>
      <trkpt lat="44.70461" lon="-1.2533">
        <ele>2.06</ele>
        <time>2023-07-23T08:08:55Z</time>
      </trkpt>
      <trkpt lat="44.7045" lon="-1.25329">
        <ele>2.54</ele>
        <time>2023-07-23T08:09:02Z</time>
      </trkpt>
      <trkpt lat="44.70437" lon="-1.2533">
        <ele>3.02</ele>
        <time>2023-07-23T08:09:11Z</time>
      </trkpt>
      <trkpt lat="44.70426" lon="-1.25336">
        <ele>2.54</ele>
        <time>2023-07-23T08:09:20Z</time>
      </trkpt>
      <trkpt lat="44.70411" lon="-1.25341">
        <ele>2.06</ele>
        <time>2023-07-23T08:09:32Z</time>
      </trkpt>
      <trkpt lat="44.70407" lon="-1.25341">
        <ele>2.06</ele>
        <time>2023-07-23T08:09:35Z</time>
      </trkpt>
      <trkpt lat="44.70396" lon="-1.25345">
        <ele>2.06</ele>
        <time>2023-07-23T08:09:43Z</time>
      </trkpt>
      <trkpt lat="44.70384" lon="-1.25348">
        <ele>2.06</ele>
        <time>2023-07-23T08:09:51Z</time>
      </trkpt>
      <trkpt lat="44.70372" lon="-1.2535">
        <ele>2.06</ele>
        <time>2023-07-23T08:10:00Z</time>
      </trkpt>
      <trkpt lat="44.70359" lon="-1.25353">
        <ele>1.58</ele>
        <time>2023-07-23T08:10:10Z</time>
      </trkpt>
      <trkpt lat="44.70343" lon="-1.25358">
        <ele>2.06</ele>
        <time>2023-07-23T08:10:22Z</time>
      </trkpt>
      <trkpt lat="44.70329" lon="-1.25363">
        <ele>2.06</ele>
        <time>2023-07-23T08:10:32Z</time>
      </trkpt>
      <trkpt lat="44.70314" lon="-1.25367">
        <ele>2.54</ele>
        <time>2023-07-23T08:10:43Z</time>
      </trkpt>
      <trkpt lat="44.70299" lon="-1.25372">
        <ele>2.54</ele>
        <time>2023-07-23T08:10:54Z</time>
      </trkpt>
      <trkpt lat="44.70286" lon="-1.25376">
        <ele>2.06</ele>
        <time>2023-07-23T08:11:04Z</time>
      </trkpt>
      <trkpt lat="44.70272" lon="-1.25381">
        <ele>2.06</ele>
        <time>2023-07-23T08:11:14Z</time>
      </trkpt>
      <trkpt lat="44.70257" lon="-1.25384">
        <ele>2.54</ele>
        <time>2023-07-23T08:11:24Z</time>
      </trkpt>
      <trkpt lat="44.70243" lon="-1.25388">
        <ele>2.06</ele>
        <time>2023-07-23T08:11:34Z</time>
      </trkpt>
      <trkpt lat="44.70224" lon="-1.25391">
        <ele>2.06</ele>
        <time>2023-07-23T08:11:47Z</time>
      </trkpt>
      <trkpt lat="44.70211" lon="-1.25393">
        <ele>2.54</ele>
        <time>2023-07-23T08:11:57Z</time>
      </trkpt>
      <trkpt lat="44.70198" lon="-1.25394">
        <ele>2.06</ele>
        <time>2023-07-23T08:12:06Z</time>
      </trkpt>
      <trkpt lat="44.70186" lon="-1.25395">
        <ele>2.06</ele>
        <time>2023-07-23T08:12:15Z</time>
      </trkpt>
      <trkpt lat="44.70177" lon="-1.25396">
        <ele>2.54</ele>
        <time>2023-07-23T08:12:23Z</time>
      </trkpt>
      <trkpt lat="44.70168" lon="-1.25394">
        <ele>2.06</ele>
        <time>2023-07-23T08:12:32Z</time>
      </trkpt>
      <trkpt lat="44.70153" lon="-1.2539">
        <ele>2.06</ele>
        <time>2023-07-23T08:12:41Z</time>
      </trkpt>
      <trkpt lat="44.70139" lon="-1.25386">
        <ele>1.58</ele>
        <time>2023-07-23T08:12:49Z</time>
      </trkpt>
      <trkpt lat="44.70123" lon="-1.25383">
        <ele>2.54</ele>
        <time>2023-07-23T08:12:58Z</time>
      </trkpt>
      <trkpt lat="44.70107" lon="-1.25381">
        <ele>2.54</ele>
        <time>2023-07-23T08:13:08Z</time>
      </trkpt>
      <trkpt lat="44.70097" lon="-1.25381">
        <ele>1.58</ele>
        <time>2023-07-23T08:13:15Z</time>
      </trkpt>
      <trkpt lat="44.70083" lon="-1.25382">
        <ele>2.54</ele>
        <time>2023-07-23T08:13:26Z</time>
      </trkpt>
      <trkpt lat="44.70067" lon="-1.25386">
        <ele>2.06</ele>
        <time>2023-07-23T08:13:37Z</time>
      </trkpt>
      <trkpt lat="44.70056" lon="-1.25391">
        <ele>1.58</ele>
        <time>2023-07-23T08:13:47Z</time>
      </trkpt>
      <trkpt lat="44.70041" lon="-1.254">
        <ele>2.06</ele>
        <time>2023-07-23T08:13:58Z</time>
      </trkpt>
      <trkpt lat="44.70028" lon="-1.25405">
        <ele>1.58</ele>
        <time>2023-07-23T08:14:09Z</time>
      </trkpt>
      <trkpt lat="44.70012" lon="-1.25411">
        <ele>1.58</ele>
        <time>2023-07-23T08:14:20Z</time>
      </trkpt>
      <trkpt lat="44.69999" lon="-1.25416">
        <ele>1.58</ele>
        <time>2023-07-23T08:14:30Z</time>
      </trkpt>
      <trkpt lat="44.69983" lon="-1.25418">
        <ele>2.06</ele>
        <time>2023-07-23T08:14:41Z</time>
      </trkpt>
      <trkpt lat="44.69966" lon="-1.25422">
        <ele>1.58</ele>
        <time>2023-07-23T08:14:53Z</time>
      </trkpt>
      <trkpt lat="44.69951" lon="-1.25427">
        <ele>2.06</ele>
        <time>2023-07-23T08:15:04Z</time>
      </trkpt>
      <trkpt lat="44.69938" lon="-1.25431">
        <ele>1.58</ele>
        <time>2023-07-23T08:15:13Z</time>
      </trkpt>
      <trkpt lat="44.69922" lon="-1.25434">
        <ele>2.06</ele>
        <time>2023-07-23T08:15:27Z</time>
      </trkpt>
      <trkpt lat="44.69909" lon="-1.25435">
        <ele>2.06</ele>
        <time>2023-07-23T08:15:36Z</time>
      </trkpt>
      <trkpt lat="44.69898" lon="-1.25439">
        <ele>2.06</ele>
        <time>2023-07-23T08:15:46Z</time>
      </trkpt>
      <trkpt lat="44.69883" lon="-1.25441">
        <ele>1.58</ele>
        <time>2023-07-23T08:15:58Z</time>
      </trkpt>
      <trkpt lat="44.69872" lon="-1.25445">
        <ele>2.06</ele>
        <time>2023-07-23T08:16:07Z</time>
      </trkpt>
      <trkpt lat="44.69862" lon="-1.25445">
        <ele>2.06</ele>
        <time>2023-07-23T08:16:16Z</time>
      </trkpt>
      <trkpt lat="44.6985" lon="-1.25448">
        <ele>1.58</ele>
        <time>2023-07-23T08:16:26Z</time>
      </trkpt>
      <trkpt lat="44.69836" lon="-1.25446">
        <ele>1.58</ele>
        <time>2023-07-23T08:16:37Z</time>
      </trkpt>
      <trkpt lat="44.69834" lon="-1.25444">
        <ele>2.06</ele>
        <time>2023-07-23T08:16:42Z</time>
      </trkpt>
      <trkpt lat="44.6983" lon="-1.25443">
        <ele>2.06</ele>
        <time>2023-07-23T08:16:46Z</time>
      </trkpt>
      <trkpt lat="44.69825" lon="-1.25433">
        <ele>2.54</ele>
        <time>2023-07-23T08:16:56Z</time>
      </trkpt>
      <trkpt lat="44.69819" lon="-1.25424">
        <ele>2.54</ele>
        <time>2023-07-23T08:17:03Z</time>
      </trkpt>
      <trkpt lat="44.69814" lon="-1.25415">
        <ele>2.54</ele>
        <time>2023-07-23T08:17:11Z</time>
      </trkpt>
      <trkpt lat="44.69808" lon="-1.25401">
        <ele>3.02</ele>
        <time>2023-07-23T08:17:21Z</time>
      </trkpt>
      <trkpt lat="44.69803" lon="-1.25393">
        <ele>2.06</ele>
        <time>2023-07-23T08:17:29Z</time>
      </trkpt>
      <trkpt lat="44.69801" lon="-1.25389">
        <ele>2.54</ele>
        <time>2023-07-23T08:17:35Z</time>
      </trkpt>
      <trkpt lat="44.69796" lon="-1.2538">
        <ele>3.5</ele>
        <time>2023-07-23T08:17:44Z</time>
      </trkpt>
      <trkpt lat="44.6979" lon="-1.25371">
        <ele>3.98</ele>
        <time>2023-07-23T08:17:52Z</time>
      </trkpt>
      <trkpt lat="44.69785" lon="-1.25364">
        <ele>3.98</ele>
        <time>2023-07-23T08:18:01Z</time>
      </trkpt>
      <trkpt lat="44.69782" lon="-1.25352">
        <ele>4.94</ele>
        <time>2023-07-23T08:18:09Z</time>
      </trkpt>
      <trkpt lat="44.69778" lon="-1.25344">
        <ele>5.42</ele>
        <time>2023-07-23T08:18:17Z</time>
      </trkpt>
      <trkpt lat="44.69776" lon="-1.25336">
        <ele>5.91</ele>
        <time>2023-07-23T08:18:26Z</time>
      </trkpt>
      <trkpt lat="44.69776" lon="-1.25335">
        <ele>6.39</ele>
        <time>2023-07-23T08:18:27Z</time>
      </trkpt>
      <trkpt lat="44.69773" lon="-1.25326">
        <ele>6.87</ele>
        <time>2023-07-23T08:18:36Z</time>
      </trkpt>
      <trkpt lat="44.69772" lon="-1.25323">
        <ele>-0.82</ele>
        <time>2023-07-23T08:18:40Z</time>
      </trkpt>
      <trkpt lat="44.69772" lon="-1.25323">
        <ele>11.19</ele>
        <time>2023-07-23T08:18:41Z</time>
      </trkpt>
      <trkpt lat="44.69772" lon="-1.25323">
        <ele>4.94</ele>
        <time>2023-07-23T08:18:42Z</time>
      </trkpt>
      <trkpt lat="44.69772" lon="-1.25323">
        <ele>6.39</ele>
        <time>2023-07-23T08:18:45Z</time>
      </trkpt>
      <trkpt lat="44.69772" lon="-1.25323">
        <ele>1.1</ele>
        <time>2023-07-23T08:18:52Z</time>
      </trkpt>
      <trkpt lat="44.69772" lon="-1.25323">
        <ele>6.39</ele>
        <time>2023-07-23T08:18:53Z</time>
      </trkpt>
      <trkpt lat="44.69772" lon="-1.25323">
        <ele>7.35</ele>
        <time>2023-07-23T08:19:00Z</time>
      </trkpt>
      <trkpt lat="44.69772" lon="-1.25323">
        <ele>7.35</ele>
        <time>2023-07-23T08:19:15Z</time>
      </trkpt>
      <trkpt lat="44.69772" lon="-1.25323">
        <ele>0.62</ele>
        <time>2023-07-23T08:19:20Z</time>
      </trkpt>
      <trkpt lat="44.69772" lon="-1.25323">
        <ele>9.75</ele>
        <time>2023-07-23T08:19:21Z</time>
      </trkpt>
      <trkpt lat="44.69772" lon="-1.25323">
        <ele>5.91</ele>
        <time>2023-07-23T08:19:24Z</time>
      </trkpt>
      <trkpt lat="44.69772" lon="-1.25323">
        <ele>3.02</ele>
        <time>2023-07-23T08:19:36Z</time>
      </trkpt>
      <trkpt lat="44.69772" lon="-1.25323">
        <ele>7.83</ele>
        <time>2023-07-23T08:19:37Z</time>
      </trkpt>
      <trkpt lat="44.69772" lon="-1.25323">
        <ele>11.19</ele>
        <time>2023-07-23T08:19:41Z</time>
      </trkpt>
      <trkpt lat="44.69772" lon="-1.25323">
        <ele>6.87</ele>
        <time>2023-07-23T08:19:42Z</time>
      </trkpt>
      <trkpt lat="44.69772" lon="-1.25323">
        <ele>6.39</ele>
        <time>2023-07-23T08:19:44Z</time>
      </trkpt>
      <trkpt lat="44.69772" lon="-1.25323">
        <ele>7.35</ele>
        <time>2023-07-23T08:20:00Z</time>
      </trkpt>
      <trkpt lat="44.69772" lon="-1.25323">
        <ele>6.87</ele>
        <time>2023-07-23T08:20:04Z</time>
      </trkpt>
      <trkpt lat="44.69772" lon="-1.25323">
        <ele>3.5</ele>
        <time>2023-07-23T08:20:13Z</time>
      </trkpt>
      <trkpt lat="44.69772" lon="-1.25323">
        <ele>7.83</ele>
        <time>2023-07-23T08:20:14Z</time>
      </trkpt>
      <trkpt lat="44.69772" lon="-1.25323">
        <ele>6.87</ele>
        <time>2023-07-23T08:20:27Z</time>
      </trkpt>
      <trkpt lat="44.69771" lon="-1.25322">
        <ele>3.98</ele>
        <time>2023-07-23T08:20:38Z</time>
      </trkpt>
      <trkpt lat="44.69771" lon="-1.25322">
        <ele>14.56</ele>
        <time>2023-07-23T08:20:39Z</time>
      </trkpt>
      <trkpt lat="44.69771" lon="-1.25322">
        <ele>7.83</ele>
        <time>2023-07-23T08:20:40Z</time>
      </trkpt>
      <trkpt lat="44.69771" lon="-1.25322">
        <ele>4.46</ele>
        <time>2023-07-23T08:20:42Z</time>
      </trkpt>
      <trkpt lat="44.69771" lon="-1.25322">
        <ele>7.83</ele>
        <time>2023-07-23T08:20:43Z</time>
      </trkpt>
      <trkpt lat="44.69772" lon="-1.25323">
        <ele>6.87</ele>
        <time>2023-07-23T08:20:52Z</time>
      </trkpt>
      <trkpt lat="44.69772" lon="-1.25323">
        <ele>7.35</ele>
        <time>2023-07-23T08:21:06Z</time>
      </trkpt>
      <trkpt lat="44.69772" lon="-1.25321">
        <ele>7.35</ele>
        <time>2023-07-23T08:21:20Z</time>
      </trkpt>
      <trkpt lat="44.69773" lon="-1.2532">
        <ele>6.39</ele>
        <time>2023-07-23T08:21:33Z</time>
      </trkpt>
      <trkpt lat="44.69773" lon="-1.25321">
        <ele>7.35</ele>
        <time>2023-07-23T08:21:48Z</time>
      </trkpt>
      <trkpt lat="44.69772" lon="-1.25321">
        <ele>7.83</ele>
        <time>2023-07-23T08:21:59Z</time>
      </trkpt>
      <trkpt lat="44.69772" lon="-1.25321">
        <ele>7.83</ele>
        <time>2023-07-23T08:22:10Z</time>
      </trkpt>
      <trkpt lat="44.69773" lon="-1.2532">
        <ele>9.27</ele>
        <time>2023-07-23T08:22:20Z</time>
      </trkpt>
      <trkpt lat="44.69773" lon="-1.2532">
        <ele>6.39</ele>
        <time>2023-07-23T08:22:23Z</time>
      </trkpt>
      <trkpt lat="44.69773" lon="-1.2532">
        <ele>12.63</ele>
        <time>2023-07-23T08:22:27Z</time>
      </trkpt>
      <trkpt lat="44.69773" lon="-1.2532">
        <ele>7.83</ele>
        <time>2023-07-23T08:22:28Z</time>
      </trkpt>
      <trkpt lat="44.69772" lon="-1.2532">
        <ele>4.46</ele>
        <time>2023-07-23T08:22:35Z</time>
      </trkpt>
      <trkpt lat="44.69772" lon="-1.2532">
        <ele>8.31</ele>
        <time>2023-07-23T08:22:36Z</time>
      </trkpt>
      <trkpt lat="44.69772" lon="-1.2532">
        <ele>4.46</ele>
        <time>2023-07-23T08:22:43Z</time>
      </trkpt>
      <trkpt lat="44.69772" lon="-1.2532">
        <ele>8.31</ele>
        <time>2023-07-23T08:22:44Z</time>
      </trkpt>
      <trkpt lat="44.69773" lon="-1.25319">
        <ele>13.12</ele>
        <time>2023-07-23T08:22:47Z</time>
      </trkpt>
      <trkpt lat="44.69773" lon="-1.25319">
        <ele>8.31</ele>
        <time>2023-07-23T08:22:48Z</time>
      </trkpt>
      <trkpt lat="44.69773" lon="-1.25319">
        <ele>8.31</ele>
        <time>2023-07-23T08:22:56Z</time>
      </trkpt>
      <trkpt lat="44.69773" lon="-1.25318">
        <ele>7.83</ele>
        <time>2023-07-23T08:23:03Z</time>
      </trkpt>
      <trkpt lat="44.69773" lon="-1.25318">
        <ele>7.83</ele>
        <time>2023-07-23T08:23:13Z</time>
      </trkpt>
      <trkpt lat="44.69773" lon="-1.25318">
        <ele>7.83</ele>
        <time>2023-07-23T08:23:27Z</time>
      </trkpt>
      <trkpt lat="44.69773" lon="-1.25318">
        <ele>7.35</ele>
        <time>2023-07-23T08:23:46Z</time>
      </trkpt>
      <trkpt lat="44.69773" lon="-1.25318">
        <ele>9.27</ele>
        <time>2023-07-23T08:24:02Z</time>
      </trkpt>
      <trkpt lat="44.69773" lon="-1.25318">
        <ele>8.79</ele>
        <time>2023-07-23T08:24:09Z</time>
      </trkpt>
      <trkpt lat="44.69773" lon="-1.25318">
        <ele>7.83</ele>
        <time>2023-07-23T08:24:18Z</time>
      </trkpt>
      <trkpt lat="44.69773" lon="-1.25318">
        <ele>9.75</ele>
        <time>2023-07-23T08:24:25Z</time>
      </trkpt>
      <trkpt lat="44.69773" lon="-1.25318">
        <ele>7.83</ele>
        <time>2023-07-23T08:24:28Z</time>
      </trkpt>
      <trkpt lat="44.69773" lon="-1.25318">
        <ele>7.83</ele>
        <time>2023-07-23T08:24:37Z</time>
      </trkpt>
      <trkpt lat="44.69773" lon="-1.25318">
        <ele>7.83</ele>
        <time>2023-07-23T08:24:48Z</time>
      </trkpt>
      <trkpt lat="44.69773" lon="-1.25318">
        <ele>7.83</ele>
        <time>2023-07-23T08:25:02Z</time>
      </trkpt>
      <trkpt lat="44.69771" lon="-1.25317">
        <ele>8.31</ele>
        <time>2023-07-23T08:25:13Z</time>
      </trkpt>
      <trkpt lat="44.69772" lon="-1.25317">
        <ele>7.83</ele>
        <time>2023-07-23T08:25:26Z</time>
      </trkpt>
      <trkpt lat="44.69772" lon="-1.25317">
        <ele>7.35</ele>
        <time>2023-07-23T08:25:41Z</time>
      </trkpt>
      <trkpt lat="44.69771" lon="-1.25318">
        <ele>7.35</ele>
        <time>2023-07-23T08:25:55Z</time>
      </trkpt>
      <trkpt lat="44.69774" lon="-1.25317">
        <ele>7.35</ele>
        <time>2023-07-23T08:26:07Z</time>
      </trkpt>
      <trkpt lat="44.69774" lon="-1.25318">
        <ele>7.83</ele>
        <time>2023-07-23T08:26:20Z</time>
      </trkpt>
      <trkpt lat="44.69774" lon="-1.25313">
        <ele>8.31</ele>
        <time>2023-07-23T08:26:30Z</time>
      </trkpt>
      <trkpt lat="44.69774" lon="-1.25308">
        <ele>8.79</ele>
        <time>2023-07-23T08:26:33Z</time>
      </trkpt>
      <trkpt lat="44.69773" lon="-1.25297">
        <ele>10.23</ele>
        <time>2023-07-23T08:26:42Z</time>
      </trkpt>
      <trkpt lat="44.69772" lon="-1.25297">
        <ele>10.71</ele>
        <time>2023-07-23T08:26:43Z</time>
      </trkpt>
      <trkpt lat="44.69771" lon="-1.25291">
        <ele>11.19</ele>
        <time>2023-07-23T08:26:48Z</time>
      </trkpt>
      <trkpt lat="44.69771" lon="-1.25281">
        <ele>13.6</ele>
        <time>2023-07-23T08:26:58Z</time>
      </trkpt>
      <trkpt lat="44.69769" lon="-1.25272">
        <ele>15.04</ele>
        <time>2023-07-23T08:27:07Z</time>
      </trkpt>
      <trkpt lat="44.69768" lon="-1.2526">
        <ele>17.92</ele>
        <time>2023-07-23T08:27:17Z</time>
      </trkpt>
      <trkpt lat="44.69767" lon="-1.25254">
        <ele>17.44</ele>
        <time>2023-07-23T08:27:22Z</time>
      </trkpt>
      <trkpt lat="44.69766" lon="-1.25242">
        <ele>18.4</ele>
        <time>2023-07-23T08:27:30Z</time>
      </trkpt>
      <trkpt lat="44.69766" lon="-1.2523">
        <ele>18.88</ele>
        <time>2023-07-23T08:27:39Z</time>
      </trkpt>
      <trkpt lat="44.69765" lon="-1.25218">
        <ele>19.84</ele>
        <time>2023-07-23T08:27:47Z</time>
      </trkpt>
      <trkpt lat="44.69762" lon="-1.25199">
        <ele>19.84</ele>
        <time>2023-07-23T08:27:57Z</time>
      </trkpt>
      <trkpt lat="44.69762" lon="-1.25187">
        <ele>20.32</ele>
        <time>2023-07-23T08:28:06Z</time>
      </trkpt>
      <trkpt lat="44.69761" lon="-1.25175">
        <ele>20.32</ele>
        <time>2023-07-23T08:28:13Z</time>
      </trkpt>
      <trkpt lat="44.69759" lon="-1.25157">
        <ele>20.81</ele>
        <time>2023-07-23T08:28:23Z</time>
      </trkpt>
      <trkpt lat="44.69757" lon="-1.25145">
        <ele>20.32</ele>
        <time>2023-07-23T08:28:30Z</time>
      </trkpt>
      <trkpt lat="44.69755" lon="-1.25127">
        <ele>19.84</ele>
        <time>2023-07-23T08:28:39Z</time>
      </trkpt>
      <trkpt lat="44.69754" lon="-1.25118">
        <ele>20.81</ele>
        <time>2023-07-23T08:28:45Z</time>
      </trkpt>
      <trkpt lat="44.69753" lon="-1.25109">
        <ele>19.84</ele>
        <time>2023-07-23T08:28:51Z</time>
      </trkpt>
      <trkpt lat="44.69751" lon="-1.25094">
        <ele>20.32</ele>
        <time>2023-07-23T08:29:00Z</time>
      </trkpt>
      <trkpt lat="44.69748" lon="-1.25081">
        <ele>20.32</ele>
        <time>2023-07-23T08:29:08Z</time>
      </trkpt>
      <trkpt lat="44.69745" lon="-1.25065">
        <ele>20.32</ele>
        <time>2023-07-23T08:29:16Z</time>
      </trkpt>
      <trkpt lat="44.69739" lon="-1.2505">
        <ele>19.84</ele>
        <time>2023-07-23T08:29:25Z</time>
      </trkpt>
      <trkpt lat="44.69733" lon="-1.25034">
        <ele>19.84</ele>
        <time>2023-07-23T08:29:34Z</time>
      </trkpt>
      <trkpt lat="44.69732" lon="-1.25031">
        <ele>19.36</ele>
        <time>2023-07-23T08:29:38Z</time>
      </trkpt>
      <trkpt lat="44.69726" lon="-1.25016">
        <ele>18.88</ele>
        <time>2023-07-23T08:29:48Z</time>
      </trkpt>
      <trkpt lat="44.69725" lon="-1.25012">
        <ele>17.92</ele>
        <time>2023-07-23T08:29:51Z</time>
      </trkpt>
      <trkpt lat="44.69722" lon="-1.25001">
        <ele>17.92</ele>
        <time>2023-07-23T08:29:56Z</time>
      </trkpt>
      <trkpt lat="44.69716" lon="-1.24983">
        <ele>17.92</ele>
        <time>2023-07-23T08:30:06Z</time>
      </trkpt>
      <trkpt lat="44.69712" lon="-1.24971">
        <ele>17.92</ele>
        <time>2023-07-23T08:30:14Z</time>
      </trkpt>
      <trkpt lat="44.69707" lon="-1.24959">
        <ele>16.48</ele>
        <time>2023-07-23T08:30:22Z</time>
      </trkpt>
      <trkpt lat="44.69702" lon="-1.24945">
        <ele>14.56</ele>
        <time>2023-07-23T08:30:33Z</time>
      </trkpt>
      <trkpt lat="44.69694" lon="-1.24927">
        <ele>13.12</ele>
        <time>2023-07-23T08:30:43Z</time>
      </trkpt>
      <trkpt lat="44.6969" lon="-1.24918">
        <ele>12.15</ele>
        <time>2023-07-23T08:30:50Z</time>
      </trkpt>
      <trkpt lat="44.69689" lon="-1.24914">
        <ele>11.67</ele>
        <time>2023-07-23T08:30:53Z</time>
      </trkpt>
      <trkpt lat="44.69682" lon="-1.24897">
        <ele>10.71</ele>
        <time>2023-07-23T08:31:02Z</time>
      </trkpt>
      <trkpt lat="44.69677" lon="-1.24885">
        <ele>10.71</ele>
        <time>2023-07-23T08:31:10Z</time>
      </trkpt>
      <trkpt lat="44.69675" lon="-1.24881">
        <ele>9.75</ele>
        <time>2023-07-23T08:31:13Z</time>
      </trkpt>
      <trkpt lat="44.6967" lon="-1.24864">
        <ele>9.27</ele>
        <time>2023-07-23T08:31:23Z</time>
      </trkpt>
      <trkpt lat="44.69665" lon="-1.2485">
        <ele>7.83</ele>
        <time>2023-07-23T08:31:31Z</time>
      </trkpt>
      <trkpt lat="44.69662" lon="-1.24841">
        <ele>6.87</ele>
        <time>2023-07-23T08:31:37Z</time>
      </trkpt>
      <trkpt lat="44.69658" lon="-1.24828">
        <ele>6.87</ele>
        <time>2023-07-23T08:31:45Z</time>
      </trkpt>
      <trkpt lat="44.69653" lon="-1.24812">
        <ele>5.91</ele>
        <time>2023-07-23T08:31:53Z</time>
      </trkpt>
      <trkpt lat="44.69649" lon="-1.24797">
        <ele>4.94</ele>
        <time>2023-07-23T08:32:02Z</time>
      </trkpt>
      <trkpt lat="44.69647" lon="-1.2478">
        <ele>4.46</ele>
        <time>2023-07-23T08:32:10Z</time>
      </trkpt>
      <trkpt lat="44.69647" lon="-1.24774">
        <ele>3.98</ele>
        <time>2023-07-23T08:32:18Z</time>
      </trkpt>
      <trkpt lat="44.69647" lon="-1.24772">
        <ele>3.98</ele>
        <time>2023-07-23T08:32:20Z</time>
      </trkpt>
      <trkpt lat="44.69648" lon="-1.24755">
        <ele>3.5</ele>
        <time>2023-07-23T08:32:29Z</time>
      </trkpt>
      <trkpt lat="44.69646" lon="-1.24739">
        <ele>3.5</ele>
        <time>2023-07-23T08:32:38Z</time>
      </trkpt>
      <trkpt lat="44.69645" lon="-1.2473">
        <ele>3.5</ele>
        <time>2023-07-23T08:32:48Z</time>
      </trkpt>
      <trkpt lat="44.69646" lon="-1.24728">
        <ele>-0.82</ele>
        <time>2023-07-23T08:32:56Z</time>
      </trkpt>
      <trkpt lat="44.69647" lon="-1.24728">
        <ele>7.83</ele>
        <time>2023-07-23T08:32:57Z</time>
      </trkpt>
      <trkpt lat="44.69647" lon="-1.24728">
        <ele>5.42</ele>
        <time>2023-07-23T08:32:58Z</time>
      </trkpt>
      <trkpt lat="44.69647" lon="-1.2473">
        <ele>0.14</ele>
        <time>2023-07-23T08:33:02Z</time>
      </trkpt>
      <trkpt lat="44.69648" lon="-1.2473">
        <ele>3.98</ele>
        <time>2023-07-23T08:33:03Z</time>
      </trkpt>
      <trkpt lat="44.69648" lon="-1.24731">
        <ele>3.5</ele>
        <time>2023-07-23T08:33:16Z</time>
      </trkpt>
      <trkpt lat="44.69648" lon="-1.24732">
        <ele>7.83</ele>
        <time>2023-07-23T08:33:21Z</time>
      </trkpt>
      <trkpt lat="44.69648" lon="-1.24732">
        <ele>3.5</ele>
        <time>2023-07-23T08:33:22Z</time>
      </trkpt>
      <trkpt lat="44.69648" lon="-1.24732">
        <ele>-0.82</ele>
        <time>2023-07-23T08:33:23Z</time>
      </trkpt>
      <trkpt lat="44.69648" lon="-1.24732">
        <ele>3.02</ele>
        <time>2023-07-23T08:33:24Z</time>
      </trkpt>
      <trkpt lat="44.69649" lon="-1.24732">
        <ele>6.39</ele>
        <time>2023-07-23T08:33:30Z</time>
      </trkpt>
      <trkpt lat="44.69649" lon="-1.24732">
        <ele>-3.71</ele>
        <time>2023-07-23T08:33:34Z</time>
      </trkpt>
      <trkpt lat="44.69649" lon="-1.24732">
        <ele>4.46</ele>
        <time>2023-07-23T08:33:35Z</time>
      </trkpt>
      <trkpt lat="44.69648" lon="-1.24733">
        <ele>3.5</ele>
        <time>2023-07-23T08:33:49Z</time>
      </trkpt>
      <trkpt lat="44.69648" lon="-1.24734">
        <ele>3.5</ele>
        <time>2023-07-23T08:34:02Z</time>
      </trkpt>
      <trkpt lat="44.69648" lon="-1.24734">
        <ele>-0.34</ele>
        <time>2023-07-23T08:34:06Z</time>
      </trkpt>
      <trkpt lat="44.69648" lon="-1.24734">
        <ele>5.91</ele>
        <time>2023-07-23T08:34:07Z</time>
      </trkpt>
      <trkpt lat="44.69648" lon="-1.24734">
        <ele>-2.75</ele>
        <time>2023-07-23T08:34:09Z</time>
      </trkpt>
      <trkpt lat="44.69648" lon="-1.24734">
        <ele>4.46</ele>
        <time>2023-07-23T08:34:10Z</time>
      </trkpt>
      <trkpt lat="44.69648" lon="-1.24734">
        <ele>-1.3</ele>
        <time>2023-07-23T08:34:11Z</time>
      </trkpt>
      <trkpt lat="44.69648" lon="-1.24734">
        <ele>4.46</ele>
        <time>2023-07-23T08:34:12Z</time>
      </trkpt>
      <trkpt lat="44.69648" lon="-1.24734">
        <ele>8.79</ele>
        <time>2023-07-23T08:34:13Z</time>
      </trkpt>
      <trkpt lat="44.69648" lon="-1.24734">
        <ele>3.5</ele>
        <time>2023-07-23T08:34:14Z</time>
      </trkpt>
      <trkpt lat="44.69648" lon="-1.24737">
        <ele>3.5</ele>
        <time>2023-07-23T08:34:31Z</time>
      </trkpt>
      <trkpt lat="44.69648" lon="-1.24737">
        <ele>-0.34</ele>
        <time>2023-07-23T08:34:35Z</time>
      </trkpt>
      <trkpt lat="44.69648" lon="-1.24737">
        <ele>3.5</ele>
        <time>2023-07-23T08:34:36Z</time>
      </trkpt>
      <trkpt lat="44.69648" lon="-1.24737">
        <ele>7.83</ele>
        <time>2023-07-23T08:34:38Z</time>
      </trkpt>
      <trkpt lat="44.69648" lon="-1.24737">
        <ele>7.83</ele>
        <time>2023-07-23T08:34:39Z</time>
      </trkpt>
      <trkpt lat="44.69647" lon="-1.24737">
        <ele>3.98</ele>
        <time>2023-07-23T08:34:40Z</time>
      </trkpt>
      <trkpt lat="44.69647" lon="-1.24737">
        <ele>3.5</ele>
        <time>2023-07-23T08:34:41Z</time>
      </trkpt>
      <trkpt lat="44.69647" lon="-1.24736">
        <ele>3.02</ele>
        <time>2023-07-23T08:34:52Z</time>
      </trkpt>
      <trkpt lat="44.69647" lon="-1.24736">
        <ele>3.02</ele>
        <time>2023-07-23T08:35:03Z</time>
      </trkpt>
      <trkpt lat="44.69647" lon="-1.24736">
        <ele>3.02</ele>
        <time>2023-07-23T08:35:21Z</time>
      </trkpt>
      <trkpt lat="44.69647" lon="-1.24736">
        <ele>3.02</ele>
        <time>2023-07-23T08:35:33Z</time>
      </trkpt>
      <trkpt lat="44.69647" lon="-1.24736">
        <ele>3.02</ele>
        <time>2023-07-23T08:35:46Z</time>
      </trkpt>
      <trkpt lat="44.69647" lon="-1.24735">
        <ele>2.54</ele>
        <time>2023-07-23T08:35:54Z</time>
      </trkpt>
      <trkpt lat="44.69648" lon="-1.24727">
        <ele>2.06</ele>
        <time>2023-07-23T08:36:01Z</time>
      </trkpt>
      <trkpt lat="44.69651" lon="-1.24704">
        <ele>1.58</ele>
        <time>2023-07-23T08:36:12Z</time>
      </trkpt>
      <trkpt lat="44.69654" lon="-1.24692">
        <ele>2.54</ele>
        <time>2023-07-23T08:36:20Z</time>
      </trkpt>
      <trkpt lat="44.69662" lon="-1.2468">
        <ele>3.02</ele>
        <time>2023-07-23T08:36:30Z</time>
      </trkpt>
      <trkpt lat="44.69662" lon="-1.2468">
        <ele>3.02</ele>
        <time>2023-07-23T08:36:31Z</time>
      </trkpt>
      <trkpt lat="44.69662" lon="-1.24679">
        <ele>2.54</ele>
        <time>2023-07-23T08:36:36Z</time>
      </trkpt>
      <trkpt lat="44.69665" lon="-1.24679">
        <ele>2.54</ele>
        <time>2023-07-23T08:36:43Z</time>
      </trkpt>
      <trkpt lat="44.69667" lon="-1.24672">
        <ele>3.02</ele>
        <time>2023-07-23T08:36:49Z</time>
      </trkpt>
      <trkpt lat="44.69667" lon="-1.24671">
        <ele>3.02</ele>
        <time>2023-07-23T08:36:50Z</time>
      </trkpt>
      <trkpt lat="44.69667" lon="-1.2466">
        <ele>3.02</ele>
        <time>2023-07-23T08:36:57Z</time>
      </trkpt>
      <trkpt lat="44.69669" lon="-1.24635">
        <ele>3.02</ele>
        <time>2023-07-23T08:37:09Z</time>
      </trkpt>
      <trkpt lat="44.69676" lon="-1.24616">
        <ele>3.5</ele>
        <time>2023-07-23T08:37:20Z</time>
      </trkpt>
      <trkpt lat="44.69678" lon="-1.24602">
        <ele>4.46</ele>
        <time>2023-07-23T08:37:29Z</time>
      </trkpt>
      <trkpt lat="44.69682" lon="-1.24595">
        <ele>4.94</ele>
        <time>2023-07-23T08:37:37Z</time>
      </trkpt>
      <trkpt lat="44.69685" lon="-1.24589">
        <ele>4.94</ele>
        <time>2023-07-23T08:37:45Z</time>
      </trkpt>
      <trkpt lat="44.69696" lon="-1.2458">
        <ele>4.46</ele>
        <time>2023-07-23T08:37:55Z</time>
      </trkpt>
      <trkpt lat="44.69707" lon="-1.24571">
        <ele>4.46</ele>
        <time>2023-07-23T08:38:06Z</time>
      </trkpt>
      <trkpt lat="44.69711" lon="-1.24568">
        <ele>3.5</ele>
        <time>2023-07-23T08:38:10Z</time>
      </trkpt>
      <trkpt lat="44.69726" lon="-1.2456">
        <ele>3.5</ele>
        <time>2023-07-23T08:38:22Z</time>
      </trkpt>
      <trkpt lat="44.69739" lon="-1.24561">
        <ele>3.5</ele>
        <time>2023-07-23T08:38:31Z</time>
      </trkpt>
      <trkpt lat="44.69751" lon="-1.24562">
        <ele>2.54</ele>
        <time>2023-07-23T08:38:42Z</time>
      </trkpt>
      <trkpt lat="44.69764" lon="-1.24564">
        <ele>2.06</ele>
        <time>2023-07-23T08:38:55Z</time>
      </trkpt>
      <trkpt lat="44.69769" lon="-1.24565">
        <ele>2.54</ele>
        <time>2023-07-23T08:39:04Z</time>
      </trkpt>
      <trkpt lat="44.69776" lon="-1.2457">
        <ele>2.06</ele>
        <time>2023-07-23T08:39:15Z</time>
      </trkpt>
      <trkpt lat="44.69785" lon="-1.24575">
        <ele>3.02</ele>
        <time>2023-07-23T08:39:23Z</time>
      </trkpt>
      <trkpt lat="44.69796" lon="-1.24579">
        <ele>2.54</ele>
        <time>2023-07-23T08:39:32Z</time>
      </trkpt>
      <trkpt lat="44.69803" lon="-1.24583">
        <ele>2.54</ele>
        <time>2023-07-23T08:39:42Z</time>
      </trkpt>
      <trkpt lat="44.69813" lon="-1.2459">
        <ele>1.58</ele>
        <time>2023-07-23T08:39:53Z</time>
      </trkpt>
      <trkpt lat="44.69823" lon="-1.24595">
        <ele>2.54</ele>
        <time>2023-07-23T08:40:03Z</time>
      </trkpt>
      <trkpt lat="44.69829" lon="-1.24596">
        <ele>2.06</ele>
        <time>2023-07-23T08:40:13Z</time>
      </trkpt>
      <trkpt lat="44.69829" lon="-1.24596">
        <ele>2.06</ele>
        <time>2023-07-23T08:40:23Z</time>
      </trkpt>
      <trkpt lat="44.69836" lon="-1.24599">
        <ele>2.54</ele>
        <time>2023-07-23T08:40:34Z</time>
      </trkpt>
      <trkpt lat="44.69852" lon="-1.24604">
        <ele>2.54</ele>
        <time>2023-07-23T08:40:46Z</time>
      </trkpt>
      <trkpt lat="44.69869" lon="-1.24605">
        <ele>2.54</ele>
        <time>2023-07-23T08:40:57Z</time>
      </trkpt>
      <trkpt lat="44.69875" lon="-1.2461">
        <ele>2.06</ele>
        <time>2023-07-23T08:41:04Z</time>
      </trkpt>
      <trkpt lat="44.69882" lon="-1.24613">
        <ele>2.06</ele>
        <time>2023-07-23T08:41:12Z</time>
      </trkpt>
      <trkpt lat="44.69889" lon="-1.24613">
        <ele>2.06</ele>
        <time>2023-07-23T08:41:18Z</time>
      </trkpt>
      <trkpt lat="44.69901" lon="-1.24614">
        <ele>2.06</ele>
        <time>2023-07-23T08:41:26Z</time>
      </trkpt>
      <trkpt lat="44.69904" lon="-1.24613">
        <ele>1.58</ele>
        <time>2023-07-23T08:41:29Z</time>
      </trkpt>
      <trkpt lat="44.69918" lon="-1.24609">
        <ele>1.58</ele>
        <time>2023-07-23T08:41:38Z</time>
      </trkpt>
      <trkpt lat="44.69929" lon="-1.24607">
        <ele>1.58</ele>
        <time>2023-07-23T08:41:47Z</time>
      </trkpt>
      <trkpt lat="44.69941" lon="-1.24603">
        <ele>2.06</ele>
        <time>2023-07-23T08:41:57Z</time>
      </trkpt>
      <trkpt lat="44.69954" lon="-1.24596">
        <ele>2.06</ele>
        <time>2023-07-23T08:42:06Z</time>
      </trkpt>
      <trkpt lat="44.69964" lon="-1.24594">
        <ele>1.58</ele>
        <time>2023-07-23T08:42:15Z</time>
      </trkpt>
      <trkpt lat="44.69979" lon="-1.24591">
        <ele>1.58</ele>
        <time>2023-07-23T08:42:26Z</time>
      </trkpt>
      <trkpt lat="44.69981" lon="-1.24591">
        <ele>1.58</ele>
        <time>2023-07-23T08:42:34Z</time>
      </trkpt>
      <trkpt lat="44.69994" lon="-1.24589">
        <ele>1.1</ele>
        <time>2023-07-23T08:42:44Z</time>
      </trkpt>
      <trkpt lat="44.70006" lon="-1.24587">
        <ele>1.58</ele>
        <time>2023-07-23T08:42:50Z</time>
      </trkpt>
      <trkpt lat="44.70024" lon="-1.24582">
        <ele>1.58</ele>
        <time>2023-07-23T08:43:00Z</time>
      </trkpt>
      <trkpt lat="44.70038" lon="-1.24578">
        <ele>2.06</ele>
        <time>2023-07-23T08:43:11Z</time>
      </trkpt>
      <trkpt lat="44.7005" lon="-1.24574">
        <ele>1.58</ele>
        <time>2023-07-23T08:43:21Z</time>
      </trkpt>
      <trkpt lat="44.70063" lon="-1.24571">
        <ele>1.58</ele>
        <time>2023-07-23T08:43:31Z</time>
      </trkpt>
      <trkpt lat="44.70073" lon="-1.24571">
        <ele>1.58</ele>
        <time>2023-07-23T08:43:40Z</time>
      </trkpt>
      <trkpt lat="44.70084" lon="-1.24572">
        <ele>2.06</ele>
        <time>2023-07-23T08:43:50Z</time>
      </trkpt>
      <trkpt lat="44.70095" lon="-1.24569">
        <ele>2.54</ele>
        <time>2023-07-23T08:44:01Z</time>
      </trkpt>
      <trkpt lat="44.70111" lon="-1.24565">
        <ele>1.58</ele>
        <time>2023-07-23T08:44:11Z</time>
      </trkpt>
      <trkpt lat="44.70124" lon="-1.24564">
        <ele>3.02</ele>
        <time>2023-07-23T08:44:21Z</time>
      </trkpt>
      <trkpt lat="44.70127" lon="-1.24563">
        <ele>3.02</ele>
        <time>2023-07-23T08:44:24Z</time>
      </trkpt>
      <trkpt lat="44.70132" lon="-1.2456">
        <ele>3.5</ele>
        <time>2023-07-23T08:44:28Z</time>
      </trkpt>
      <trkpt lat="44.70149" lon="-1.24557">
        <ele>3.02</ele>
        <time>2023-07-23T08:44:39Z</time>
      </trkpt>
      <trkpt lat="44.70166" lon="-1.24553">
        <ele>3.5</ele>
        <time>2023-07-23T08:44:52Z</time>
      </trkpt>
      <trkpt lat="44.70178" lon="-1.2455">
        <ele>3.5</ele>
        <time>2023-07-23T08:45:02Z</time>
      </trkpt>
      <trkpt lat="44.70194" lon="-1.24547">
        <ele>3.98</ele>
        <time>2023-07-23T08:45:13Z</time>
      </trkpt>
      <trkpt lat="44.70208" lon="-1.24545">
        <ele>3.98</ele>
        <time>2023-07-23T08:45:25Z</time>
      </trkpt>
      <trkpt lat="44.70224" lon="-1.24541">
        <ele>3.5</ele>
        <time>2023-07-23T08:45:37Z</time>
      </trkpt>
      <trkpt lat="44.70235" lon="-1.2454">
        <ele>3.98</ele>
        <time>2023-07-23T08:45:47Z</time>
      </trkpt>
      <trkpt lat="44.70239" lon="-1.24538">
        <ele>3.5</ele>
        <time>2023-07-23T08:45:51Z</time>
      </trkpt>
      <trkpt lat="44.70256" lon="-1.24535">
        <ele>3.98</ele>
        <time>2023-07-23T08:46:04Z</time>
      </trkpt>
      <trkpt lat="44.70272" lon="-1.24533">
        <ele>3.98</ele>
        <time>2023-07-23T08:46:17Z</time>
      </trkpt>
      <trkpt lat="44.70279" lon="-1.24531">
        <ele>3.02</ele>
        <time>2023-07-23T08:46:26Z</time>
      </trkpt>
      <trkpt lat="44.703" lon="-1.24527">
        <ele>3.02</ele>
        <time>2023-07-23T08:46:38Z</time>
      </trkpt>
      <trkpt lat="44.70316" lon="-1.24523">
        <ele>2.54</ele>
        <time>2023-07-23T08:46:50Z</time>
      </trkpt>
      <trkpt lat="44.70332" lon="-1.24519">
        <ele>3.02</ele>
        <time>2023-07-23T08:47:02Z</time>
      </trkpt>
      <trkpt lat="44.70344" lon="-1.2452">
        <ele>3.02</ele>
        <time>2023-07-23T08:47:12Z</time>
      </trkpt>
      <trkpt lat="44.70362" lon="-1.24517">
        <ele>3.02</ele>
        <time>2023-07-23T08:47:24Z</time>
      </trkpt>
      <trkpt lat="44.70371" lon="-1.24512">
        <ele>3.5</ele>
        <time>2023-07-23T08:47:34Z</time>
      </trkpt>
      <trkpt lat="44.70386" lon="-1.24509">
        <ele>3.02</ele>
        <time>2023-07-23T08:47:45Z</time>
      </trkpt>
      <trkpt lat="44.70402" lon="-1.24504">
        <ele>2.54</ele>
        <time>2023-07-23T08:47:56Z</time>
      </trkpt>
      <trkpt lat="44.70416" lon="-1.24502">
        <ele>3.02</ele>
        <time>2023-07-23T08:48:07Z</time>
      </trkpt>
      <trkpt lat="44.70429" lon="-1.24499">
        <ele>3.5</ele>
        <time>2023-07-23T08:48:17Z</time>
      </trkpt>
      <trkpt lat="44.70439" lon="-1.24497">
        <ele>3.98</ele>
        <time>2023-07-23T08:48:28Z</time>
      </trkpt>
      <trkpt lat="44.70448" lon="-1.24492">
        <ele>3.5</ele>
        <time>2023-07-23T08:48:38Z</time>
      </trkpt>
      <trkpt lat="44.70449" lon="-1.24491">
        <ele>3.5</ele>
        <time>2023-07-23T08:48:49Z</time>
      </trkpt>
      <trkpt lat="44.70449" lon="-1.24493">
        <ele>3.5</ele>
        <time>2023-07-23T08:49:04Z</time>
      </trkpt>
      <trkpt lat="44.70447" lon="-1.24492">
        <ele>2.54</ele>
        <time>2023-07-23T08:49:17Z</time>
      </trkpt>
      <trkpt lat="44.70448" lon="-1.24492">
        <ele>3.5</ele>
        <time>2023-07-23T08:49:33Z</time>
      </trkpt>
      <trkpt lat="44.70456" lon="-1.24481">
        <ele>2.54</ele>
        <time>2023-07-23T08:49:41Z</time>
      </trkpt>
      <trkpt lat="44.70456" lon="-1.24476">
        <ele>2.54</ele>
        <time>2023-07-23T08:49:43Z</time>
      </trkpt>
      <trkpt lat="44.70456" lon="-1.24456">
        <ele>2.54</ele>
        <time>2023-07-23T08:49:52Z</time>
      </trkpt>
      <trkpt lat="44.70457" lon="-1.2444">
        <ele>2.06</ele>
        <time>2023-07-23T08:50:02Z</time>
      </trkpt>
      <trkpt lat="44.70456" lon="-1.24424">
        <ele>1.58</ele>
        <time>2023-07-23T08:50:10Z</time>
      </trkpt>
      <trkpt lat="44.70457" lon="-1.24412">
        <ele>1.1</ele>
        <time>2023-07-23T08:50:17Z</time>
      </trkpt>
      <trkpt lat="44.70457" lon="-1.24394">
        <ele>0.62</ele>
        <time>2023-07-23T08:50:26Z</time>
      </trkpt>
      <trkpt lat="44.70457" lon="-1.24379">
        <ele>-0.34</ele>
        <time>2023-07-23T08:50:35Z</time>
      </trkpt>
      <trkpt lat="44.70455" lon="-1.24357">
        <ele>-0.34</ele>
        <time>2023-07-23T08:50:45Z</time>
      </trkpt>
      <trkpt lat="44.70453" lon="-1.24341">
        <ele>-0.82</ele>
        <time>2023-07-23T08:50:53Z</time>
      </trkpt>
      <trkpt lat="44.70451" lon="-1.2432">
        <ele>-0.34</ele>
        <time>2023-07-23T08:51:04Z</time>
      </trkpt>
      <trkpt lat="44.7045" lon="-1.24306">
        <ele>-0.82</ele>
        <time>2023-07-23T08:51:12Z</time>
      </trkpt>
      <trkpt lat="44.70451" lon="-1.24292">
        <ele>-0.82</ele>
        <time>2023-07-23T08:51:21Z</time>
      </trkpt>
      <trkpt lat="44.7045" lon="-1.24271">
        <ele>-1.3</ele>
        <time>2023-07-23T08:51:32Z</time>
      </trkpt>
      <trkpt lat="44.70448" lon="-1.24256">
        <ele>-0.82</ele>
        <time>2023-07-23T08:51:40Z</time>
      </trkpt>
      <trkpt lat="44.70449" lon="-1.24242">
        <ele>-0.82</ele>
        <time>2023-07-23T08:51:49Z</time>
      </trkpt>
      <trkpt lat="44.70447" lon="-1.24226">
        <ele>-0.82</ele>
        <time>2023-07-23T08:51:57Z</time>
      </trkpt>
      <trkpt lat="44.70446" lon="-1.24212">
        <ele>-1.3</ele>
        <time>2023-07-23T08:52:05Z</time>
      </trkpt>
      <trkpt lat="44.70446" lon="-1.24196">
        <ele>-0.82</ele>
        <time>2023-07-23T08:52:14Z</time>
      </trkpt>
      <trkpt lat="44.70445" lon="-1.24181">
        <ele>-0.82</ele>
        <time>2023-07-23T08:52:22Z</time>
      </trkpt>
      <trkpt lat="44.70445" lon="-1.24169">
        <ele>-0.82</ele>
        <time>2023-07-23T08:52:31Z</time>
      </trkpt>
      <trkpt lat="44.70443" lon="-1.2415">
        <ele>-0.82</ele>
        <time>2023-07-23T08:52:39Z</time>
      </trkpt>
      <trkpt lat="44.70444" lon="-1.24135">
        <ele>-0.82</ele>
        <time>2023-07-23T08:52:47Z</time>
      </trkpt>
      <trkpt lat="44.70443" lon="-1.24117">
        <ele>-0.82</ele>
        <time>2023-07-23T08:52:57Z</time>
      </trkpt>
      <trkpt lat="44.70443" lon="-1.24095">
        <ele>-1.3</ele>
        <time>2023-07-23T08:53:09Z</time>
      </trkpt>
      <trkpt lat="44.70441" lon="-1.2408">
        <ele>-1.3</ele>
        <time>2023-07-23T08:53:18Z</time>
      </trkpt>
      <trkpt lat="44.7044" lon="-1.24062">
        <ele>-1.79</ele>
        <time>2023-07-23T08:53:27Z</time>
      </trkpt>
      <trkpt lat="44.7044" lon="-1.24057">
        <ele>-1.3</ele>
        <time>2023-07-23T08:53:31Z</time>
      </trkpt>
      <trkpt lat="44.70442" lon="-1.24043">
        <ele>-1.3</ele>
        <time>2023-07-23T08:53:39Z</time>
      </trkpt>
      <trkpt lat="44.7045" lon="-1.24028">
        <ele>-0.82</ele>
        <time>2023-07-23T08:53:51Z</time>
      </trkpt>
      <trkpt lat="44.70462" lon="-1.24024">
        <ele>-0.34</ele>
        <time>2023-07-23T08:54:01Z</time>
      </trkpt>
      <trkpt lat="44.70473" lon="-1.24014">
        <ele>-0.34</ele>
        <time>2023-07-23T08:54:12Z</time>
      </trkpt>
      <trkpt lat="44.70483" lon="-1.24003">
        <ele>-0.34</ele>
        <time>2023-07-23T08:54:22Z</time>
      </trkpt>
      <trkpt lat="44.70494" lon="-1.23995">
        <ele>-1.3</ele>
        <time>2023-07-23T08:54:31Z</time>
      </trkpt>
      <trkpt lat="44.70501" lon="-1.23986">
        <ele>-0.82</ele>
        <time>2023-07-23T08:54:39Z</time>
      </trkpt>
      <trkpt lat="44.7051" lon="-1.23976">
        <ele>-0.82</ele>
        <time>2023-07-23T08:54:47Z</time>
      </trkpt>
      <trkpt lat="44.70517" lon="-1.23967">
        <ele>-1.3</ele>
        <time>2023-07-23T08:54:57Z</time>
      </trkpt>
      <trkpt lat="44.70526" lon="-1.23957">
        <ele>-1.79</ele>
        <time>2023-07-23T08:55:05Z</time>
      </trkpt>
      <trkpt lat="44.70538" lon="-1.2394">
        <ele>-1.79</ele>
        <time>2023-07-23T08:55:16Z</time>
      </trkpt>
      <trkpt lat="44.70551" lon="-1.23928">
        <ele>-1.79</ele>
        <time>2023-07-23T08:55:25Z</time>
      </trkpt>
      <trkpt lat="44.70562" lon="-1.2392">
        <ele>-1.3</ele>
        <time>2023-07-23T08:55:33Z</time>
      </trkpt>
      <trkpt lat="44.70568" lon="-1.23913">
        <ele>-1.79</ele>
        <time>2023-07-23T08:55:40Z</time>
      </trkpt>
      <trkpt lat="44.70577" lon="-1.23905">
        <ele>-1.3</ele>
        <time>2023-07-23T08:55:48Z</time>
      </trkpt>
      <trkpt lat="44.70582" lon="-1.23902">
        <ele>-1.3</ele>
        <time>2023-07-23T08:55:52Z</time>
      </trkpt>
      <trkpt lat="44.70589" lon="-1.23894">
        <ele>-1.3</ele>
        <time>2023-07-23T08:56:01Z</time>
      </trkpt>
      <trkpt lat="44.70596" lon="-1.23884">
        <ele>-1.79</ele>
        <time>2023-07-23T08:56:09Z</time>
      </trkpt>
      <trkpt lat="44.70608" lon="-1.23873">
        <ele>-1.3</ele>
        <time>2023-07-23T08:56:19Z</time>
      </trkpt>
      <trkpt lat="44.70619" lon="-1.23862">
        <ele>-1.79</ele>
        <time>2023-07-23T08:56:29Z</time>
      </trkpt>
      <trkpt lat="44.70627" lon="-1.23852">
        <ele>-1.79</ele>
        <time>2023-07-23T08:56:37Z</time>
      </trkpt>
      <trkpt lat="44.70634" lon="-1.23844">
        <ele>-1.3</ele>
        <time>2023-07-23T08:56:45Z</time>
      </trkpt>
      <trkpt lat="44.70636" lon="-1.23839">
        <ele>-0.82</ele>
        <time>2023-07-23T08:56:49Z</time>
      </trkpt>
      <trkpt lat="44.70639" lon="-1.2383">
        <ele>0.14</ele>
        <time>2023-07-23T08:56:57Z</time>
      </trkpt>
      <trkpt lat="44.70644" lon="-1.23823">
        <ele>1.58</ele>
        <time>2023-07-23T08:57:06Z</time>
      </trkpt>
      <trkpt lat="44.70653" lon="-1.23818">
        <ele>2.54</ele>
        <time>2023-07-23T08:57:18Z</time>
      </trkpt>
      <trkpt lat="44.70656" lon="-1.23806">
        <ele>2.06</ele>
        <time>2023-07-23T08:57:28Z</time>
      </trkpt>
      <trkpt lat="44.70657" lon="-1.23805">
        <ele>3.5</ele>
        <time>2023-07-23T08:57:29Z</time>
      </trkpt>
      <trkpt lat="44.70665" lon="-1.23802">
        <ele>3.02</ele>
        <time>2023-07-23T08:57:39Z</time>
      </trkpt>
      <trkpt lat="44.70676" lon="-1.23791">
        <ele>0.14</ele>
        <time>2023-07-23T08:57:49Z</time>
      </trkpt>
      <trkpt lat="44.70685" lon="-1.23781">
        <ele>-0.82</ele>
        <time>2023-07-23T08:57:58Z</time>
      </trkpt>
      <trkpt lat="44.70696" lon="-1.23769">
        <ele>-1.3</ele>
        <time>2023-07-23T08:58:07Z</time>
      </trkpt>
      <trkpt lat="44.70713" lon="-1.23753">
        <ele>-1.79</ele>
        <time>2023-07-23T08:58:20Z</time>
      </trkpt>
      <trkpt lat="44.70716" lon="-1.23749">
        <ele>-1.3</ele>
        <time>2023-07-23T08:58:23Z</time>
      </trkpt>
      <trkpt lat="44.70721" lon="-1.23745">
        <ele>-1.3</ele>
        <time>2023-07-23T08:58:27Z</time>
      </trkpt>
      <trkpt lat="44.70733" lon="-1.23733">
        <ele>-1.3</ele>
        <time>2023-07-23T08:58:38Z</time>
      </trkpt>
      <trkpt lat="44.70741" lon="-1.23726">
        <ele>-1.79</ele>
        <time>2023-07-23T08:58:45Z</time>
      </trkpt>
      <trkpt lat="44.70748" lon="-1.2372">
        <ele>2.06</ele>
        <time>2023-07-23T08:58:51Z</time>
      </trkpt>
      <trkpt lat="44.7075" lon="-1.23718">
        <ele>-1.3</ele>
        <time>2023-07-23T08:58:53Z</time>
      </trkpt>
      <trkpt lat="44.70751" lon="-1.23717">
        <ele>-0.82</ele>
        <time>2023-07-23T08:58:54Z</time>
      </trkpt>
      <trkpt lat="44.70754" lon="-1.23715">
        <ele>-4.67</ele>
        <time>2023-07-23T08:58:57Z</time>
      </trkpt>
      <trkpt lat="44.70755" lon="-1.23714">
        <ele>-0.82</ele>
        <time>2023-07-23T08:58:58Z</time>
      </trkpt>
      <trkpt lat="44.70763" lon="-1.23707">
        <ele>-1.3</ele>
        <time>2023-07-23T08:59:05Z</time>
      </trkpt>
      <trkpt lat="44.7077" lon="-1.23692">
        <ele>-1.79</ele>
        <time>2023-07-23T08:59:15Z</time>
      </trkpt>
      <trkpt lat="44.70779" lon="-1.23677">
        <ele>0.62</ele>
        <time>2023-07-23T08:59:27Z</time>
      </trkpt>
      <trkpt lat="44.70786" lon="-1.23667">
        <ele>1.58</ele>
        <time>2023-07-23T08:59:37Z</time>
      </trkpt>
      <trkpt lat="44.70795" lon="-1.23658">
        <ele>2.54</ele>
        <time>2023-07-23T08:59:46Z</time>
      </trkpt>
      <trkpt lat="44.70809" lon="-1.23646">
        <ele>3.5</ele>
        <time>2023-07-23T08:59:57Z</time>
      </trkpt>
      <trkpt lat="44.70819" lon="-1.23635">
        <ele>3.02</ele>
        <time>2023-07-23T09:00:05Z</time>
      </trkpt>
      <trkpt lat="44.7083" lon="-1.23624">
        <ele>3.98</ele>
        <time>2023-07-23T09:00:16Z</time>
      </trkpt>
      <trkpt lat="44.7084" lon="-1.23614">
        <ele>4.94</ele>
        <time>2023-07-23T09:00:28Z</time>
      </trkpt>
      <trkpt lat="44.7085" lon="-1.23605">
        <ele>4.94</ele>
        <time>2023-07-23T09:00:37Z</time>
      </trkpt>
      <trkpt lat="44.70863" lon="-1.23588">
        <ele>4.94</ele>
        <time>2023-07-23T09:00:50Z</time>
      </trkpt>
      <trkpt lat="44.70866" lon="-1.23586">
        <ele>4.46</ele>
        <time>2023-07-23T09:00:55Z</time>
      </trkpt>
      <trkpt lat="44.70875" lon="-1.23572">
        <ele>3.98</ele>
        <time>2023-07-23T09:01:06Z</time>
      </trkpt>
      <trkpt lat="44.70883" lon="-1.23564">
        <ele>4.46</ele>
        <time>2023-07-23T09:01:14Z</time>
      </trkpt>
      <trkpt lat="44.70893" lon="-1.23557">
        <ele>3.5</ele>
        <time>2023-07-23T09:01:22Z</time>
      </trkpt>
      <trkpt lat="44.70903" lon="-1.23547">
        <ele>1.58</ele>
        <time>2023-07-23T09:01:32Z</time>
      </trkpt>
      <trkpt lat="44.70915" lon="-1.23534">
        <ele>-0.34</ele>
        <time>2023-07-23T09:01:43Z</time>
      </trkpt>
      <trkpt lat="44.70929" lon="-1.23525">
        <ele>-1.79</ele>
        <time>2023-07-23T09:01:55Z</time>
      </trkpt>
      <trkpt lat="44.70936" lon="-1.23513">
        <ele>-1.79</ele>
        <time>2023-07-23T09:02:05Z</time>
      </trkpt>
      <trkpt lat="44.70945" lon="-1.23506">
        <ele>-1.79</ele>
        <time>2023-07-23T09:02:13Z</time>
      </trkpt>
      <trkpt lat="44.70948" lon="-1.235">
        <ele>-1.79</ele>
        <time>2023-07-23T09:02:17Z</time>
      </trkpt>
      <trkpt lat="44.70954" lon="-1.23494">
        <ele>-1.79</ele>
        <time>2023-07-23T09:02:23Z</time>
      </trkpt>
      <trkpt lat="44.70964" lon="-1.23479">
        <ele>-2.27</ele>
        <time>2023-07-23T09:02:31Z</time>
      </trkpt>
      <trkpt lat="44.70973" lon="-1.23471">
        <ele>-2.75</ele>
        <time>2023-07-23T09:02:39Z</time>
      </trkpt>
      <trkpt lat="44.7098" lon="-1.23462">
        <ele>-1.79</ele>
        <time>2023-07-23T09:02:46Z</time>
      </trkpt>
      <trkpt lat="44.7099" lon="-1.23454">
        <ele>-2.27</ele>
        <time>2023-07-23T09:02:55Z</time>
      </trkpt>
      <trkpt lat="44.71" lon="-1.23443">
        <ele>-2.27</ele>
        <time>2023-07-23T09:03:04Z</time>
      </trkpt>
      <trkpt lat="44.71014" lon="-1.23429">
        <ele>-2.27</ele>
        <time>2023-07-23T09:03:15Z</time>
      </trkpt>
      <trkpt lat="44.71024" lon="-1.23415">
        <ele>-2.75</ele>
        <time>2023-07-23T09:03:27Z</time>
      </trkpt>
      <trkpt lat="44.71037" lon="-1.23403">
        <ele>-2.27</ele>
        <time>2023-07-23T09:03:37Z</time>
      </trkpt>
      <trkpt lat="44.71046" lon="-1.23393">
        <ele>-1.79</ele>
        <time>2023-07-23T09:03:46Z</time>
      </trkpt>
      <trkpt lat="44.71055" lon="-1.23382">
        <ele>-2.75</ele>
        <time>2023-07-23T09:03:56Z</time>
      </trkpt>
      <trkpt lat="44.71067" lon="-1.2337">
        <ele>-2.75</ele>
        <time>2023-07-23T09:04:06Z</time>
      </trkpt>
      <trkpt lat="44.71074" lon="-1.23363">
        <ele>-2.27</ele>
        <time>2023-07-23T09:04:13Z</time>
      </trkpt>
      <trkpt lat="44.71087" lon="-1.23349">
        <ele>-3.23</ele>
        <time>2023-07-23T09:04:25Z</time>
      </trkpt>
      <trkpt lat="44.71096" lon="-1.23334">
        <ele>-2.75</ele>
        <time>2023-07-23T09:04:36Z</time>
      </trkpt>
      <trkpt lat="44.71104" lon="-1.23324">
        <ele>-2.27</ele>
        <time>2023-07-23T09:04:45Z</time>
      </trkpt>
      <trkpt lat="44.71119" lon="-1.23315">
        <ele>-2.75</ele>
        <time>2023-07-23T09:04:55Z</time>
      </trkpt>
      <trkpt lat="44.71129" lon="-1.23308">
        <ele>-3.23</ele>
        <time>2023-07-23T09:05:03Z</time>
      </trkpt>
      <trkpt lat="44.71135" lon="-1.23296">
        <ele>-2.75</ele>
        <time>2023-07-23T09:05:10Z</time>
      </trkpt>
      <trkpt lat="44.71137" lon="-1.23296">
        <ele>-2.27</ele>
        <time>2023-07-23T09:05:11Z</time>
      </trkpt>
      <trkpt lat="44.7115" lon="-1.23292">
        <ele>-2.75</ele>
        <time>2023-07-23T09:05:20Z</time>
      </trkpt>
      <trkpt lat="44.71152" lon="-1.2329">
        <ele>-2.75</ele>
        <time>2023-07-23T09:05:22Z</time>
      </trkpt>
      <trkpt lat="44.7116" lon="-1.23281">
        <ele>-3.23</ele>
        <time>2023-07-23T09:05:31Z</time>
      </trkpt>
      <trkpt lat="44.71168" lon="-1.23277">
        <ele>-2.75</ele>
        <time>2023-07-23T09:05:38Z</time>
      </trkpt>
      <trkpt lat="44.71167" lon="-1.23276">
        <ele>-3.23</ele>
        <time>2023-07-23T09:05:49Z</time>
      </trkpt>
      <trkpt lat="44.71168" lon="-1.23276">
        <ele>-6.11</ele>
        <time>2023-07-23T09:05:51Z</time>
      </trkpt>
      <trkpt lat="44.71168" lon="-1.23276">
        <ele>-0.82</ele>
        <time>2023-07-23T09:05:52Z</time>
      </trkpt>
      <trkpt lat="44.71168" lon="-1.23276">
        <ele>-2.27</ele>
        <time>2023-07-23T09:05:55Z</time>
      </trkpt>
      <trkpt lat="44.71168" lon="-1.23277">
        <ele>-2.75</ele>
        <time>2023-07-23T09:05:57Z</time>
      </trkpt>
      <trkpt lat="44.71172" lon="-1.23275">
        <ele>-6.59</ele>
        <time>2023-07-23T09:06:02Z</time>
      </trkpt>
      <trkpt lat="44.71173" lon="-1.23275">
        <ele>-2.27</ele>
        <time>2023-07-23T09:06:03Z</time>
      </trkpt>
      <trkpt lat="44.71175" lon="-1.23274">
        <ele>0.14</ele>
        <time>2023-07-23T09:06:05Z</time>
      </trkpt>
      <trkpt lat="44.71178" lon="-1.23274">
        <ele>-1.79</ele>
        <time>2023-07-23T09:06:08Z</time>
      </trkpt>
      <trkpt lat="44.71184" lon="-1.23272">
        <ele>-3.23</ele>
        <time>2023-07-23T09:06:14Z</time>
      </trkpt>
      <trkpt lat="44.71193" lon="-1.2327">
        <ele>-3.23</ele>
        <time>2023-07-23T09:06:22Z</time>
      </trkpt>
      <trkpt lat="44.71193" lon="-1.2327">
        <ele>-3.71</ele>
        <time>2023-07-23T09:06:23Z</time>
      </trkpt>
      <trkpt lat="44.71194" lon="-1.2327">
        <ele>-3.23</ele>
        <time>2023-07-23T09:06:27Z</time>
      </trkpt>
      <trkpt lat="44.71208" lon="-1.23265">
        <ele>-3.23</ele>
        <time>2023-07-23T09:06:40Z</time>
      </trkpt>
      <trkpt lat="44.71221" lon="-1.23265">
        <ele>-3.23</ele>
        <time>2023-07-23T09:06:50Z</time>
      </trkpt>
      <trkpt lat="44.71229" lon="-1.23261">
        <ele>-2.75</ele>
        <time>2023-07-23T09:06:59Z</time>
      </trkpt>
      <trkpt lat="44.71227" lon="-1.23262">
        <ele>-3.23</ele>
        <time>2023-07-23T09:07:06Z</time>
      </trkpt>
      <trkpt lat="44.71227" lon="-1.23264">
        <ele>-2.75</ele>
        <time>2023-07-23T09:07:12Z</time>
      </trkpt>
      <trkpt lat="44.71231" lon="-1.23264">
        <ele>-2.75</ele>
        <time>2023-07-23T09:07:18Z</time>
      </trkpt>
      <trkpt lat="44.71233" lon="-1.23264">
        <ele>-3.23</ele>
        <time>2023-07-23T09:07:21Z</time>
      </trkpt>
      <trkpt lat="44.71236" lon="-1.23263">
        <ele>-2.75</ele>
        <time>2023-07-23T09:07:25Z</time>
      </trkpt>
      <trkpt lat="44.71239" lon="-1.23263">
        <ele>-2.75</ele>
        <time>2023-07-23T09:07:28Z</time>
      </trkpt>
      <trkpt lat="44.71251" lon="-1.23258">
        <ele>-3.71</ele>
        <time>2023-07-23T09:07:37Z</time>
      </trkpt>
      <trkpt lat="44.71263" lon="-1.23254">
        <ele>-3.71</ele>
        <time>2023-07-23T09:07:47Z</time>
      </trkpt>
      <trkpt lat="44.71274" lon="-1.23253">
        <ele>-3.71</ele>
        <time>2023-07-23T09:07:56Z</time>
      </trkpt>
      <trkpt lat="44.71289" lon="-1.23251">
        <ele>-3.23</ele>
        <time>2023-07-23T09:08:07Z</time>
      </trkpt>
      <trkpt lat="44.71304" lon="-1.23247">
        <ele>-2.27</ele>
        <time>2023-07-23T09:08:18Z</time>
      </trkpt>
      <trkpt lat="44.71316" lon="-1.23246">
        <ele>-1.3</ele>
        <time>2023-07-23T09:08:29Z</time>
      </trkpt>
      <trkpt lat="44.71328" lon="-1.23242">
        <ele>-1.79</ele>
        <time>2023-07-23T09:08:40Z</time>
      </trkpt>
      <trkpt lat="44.71346" lon="-1.23244">
        <ele>-2.27</ele>
        <time>2023-07-23T09:08:53Z</time>
      </trkpt>
      <trkpt lat="44.7136" lon="-1.23244">
        <ele>-2.75</ele>
        <time>2023-07-23T09:09:05Z</time>
      </trkpt>
      <trkpt lat="44.71373" lon="-1.23241">
        <ele>-3.23</ele>
        <time>2023-07-23T09:09:17Z</time>
      </trkpt>
      <trkpt lat="44.71378" lon="-1.23239">
        <ele>-2.75</ele>
        <time>2023-07-23T09:09:24Z</time>
      </trkpt>
      <trkpt lat="44.71377" lon="-1.23239">
        <ele>-2.75</ele>
        <time>2023-07-23T09:09:26Z</time>
      </trkpt>
      <trkpt lat="44.71376" lon="-1.2324">
        <ele>-2.75</ele>
        <time>2023-07-23T09:09:32Z</time>
      </trkpt>
      <trkpt lat="44.71376" lon="-1.23239">
        <ele>-2.75</ele>
        <time>2023-07-23T09:09:41Z</time>
      </trkpt>
      <trkpt lat="44.71376" lon="-1.23238">
        <ele>-2.75</ele>
        <time>2023-07-23T09:09:54Z</time>
      </trkpt>
      <trkpt lat="44.71377" lon="-1.23238">
        <ele>-2.75</ele>
        <time>2023-07-23T09:10:07Z</time>
      </trkpt>
      <trkpt lat="44.71377" lon="-1.23239">
        <ele>0.62</ele>
        <time>2023-07-23T09:10:16Z</time>
      </trkpt>
      <trkpt lat="44.71377" lon="-1.23239">
        <ele>-2.27</ele>
        <time>2023-07-23T09:10:17Z</time>
      </trkpt>
      <trkpt lat="44.71377" lon="-1.23239">
        <ele>3.5</ele>
        <time>2023-07-23T09:10:18Z</time>
      </trkpt>
      <trkpt lat="44.71377" lon="-1.23239">
        <ele>-1.79</ele>
        <time>2023-07-23T09:10:19Z</time>
      </trkpt>
      <trkpt lat="44.71377" lon="-1.23237">
        <ele>-2.27</ele>
        <time>2023-07-23T09:10:25Z</time>
      </trkpt>
      <trkpt lat="44.71376" lon="-1.23235">
        <ele>-1.79</ele>
        <time>2023-07-23T09:10:33Z</time>
      </trkpt>
      <trkpt lat="44.71377" lon="-1.23235">
        <ele>-2.75</ele>
        <time>2023-07-23T09:10:46Z</time>
      </trkpt>
      <trkpt lat="44.71372" lon="-1.23236">
        <ele>-2.75</ele>
        <time>2023-07-23T09:10:58Z</time>
      </trkpt>
      <trkpt lat="44.71372" lon="-1.23236">
        <ele>-1.79</ele>
        <time>2023-07-23T09:11:12Z</time>
      </trkpt>
      <trkpt lat="44.71372" lon="-1.23236">
        <ele>-2.27</ele>
        <time>2023-07-23T09:11:24Z</time>
      </trkpt>
      <trkpt lat="44.71373" lon="-1.23234">
        <ele>-3.23</ele>
        <time>2023-07-23T09:11:35Z</time>
      </trkpt>
      <trkpt lat="44.71374" lon="-1.23232">
        <ele>-1.79</ele>
        <time>2023-07-23T09:11:46Z</time>
      </trkpt>
      <trkpt lat="44.71376" lon="-1.23231">
        <ele>-1.79</ele>
        <time>2023-07-23T09:11:59Z</time>
      </trkpt>
      <trkpt lat="44.71376" lon="-1.23231">
        <ele>-1.79</ele>
        <time>2023-07-23T09:12:11Z</time>
      </trkpt>
      <trkpt lat="44.71376" lon="-1.23223">
        <ele>-1.79</ele>
        <time>2023-07-23T09:12:20Z</time>
      </trkpt>
      <trkpt lat="44.71377" lon="-1.23206">
        <ele>-0.34</ele>
        <time>2023-07-23T09:12:31Z</time>
      </trkpt>
      <trkpt lat="44.71378" lon="-1.2319">
        <ele>-0.82</ele>
        <time>2023-07-23T09:12:41Z</time>
      </trkpt>
      <trkpt lat="44.71376" lon="-1.23177">
        <ele>0.14</ele>
        <time>2023-07-23T09:12:48Z</time>
      </trkpt>
      <trkpt lat="44.71378" lon="-1.23158">
        <ele>1.1</ele>
        <time>2023-07-23T09:13:00Z</time>
      </trkpt>
      <trkpt lat="44.71379" lon="-1.23148">
        <ele>1.58</ele>
        <time>2023-07-23T09:13:07Z</time>
      </trkpt>
      <trkpt lat="44.71381" lon="-1.23137">
        <ele>3.5</ele>
        <time>2023-07-23T09:13:16Z</time>
      </trkpt>
      <trkpt lat="44.71382" lon="-1.23125">
        <ele>5.91</ele>
        <time>2023-07-23T09:13:29Z</time>
      </trkpt>
      <trkpt lat="44.71382" lon="-1.23101">
        <ele>6.87</ele>
        <time>2023-07-23T09:13:39Z</time>
      </trkpt>
      <trkpt lat="44.71381" lon="-1.23097">
        <ele>7.83</ele>
        <time>2023-07-23T09:13:41Z</time>
      </trkpt>
      <trkpt lat="44.71383" lon="-1.23087">
        <ele>7.35</ele>
        <time>2023-07-23T09:13:49Z</time>
      </trkpt>
      <trkpt lat="44.71386" lon="-1.23073">
        <ele>10.23</ele>
        <time>2023-07-23T09:13:59Z</time>
      </trkpt>
      <trkpt lat="44.71389" lon="-1.23058">
        <ele>11.19</ele>
        <time>2023-07-23T09:14:08Z</time>
      </trkpt>
      <trkpt lat="44.71393" lon="-1.23043">
        <ele>10.23</ele>
        <time>2023-07-23T09:14:18Z</time>
      </trkpt>
      <trkpt lat="44.71393" lon="-1.23025">
        <ele>11.19</ele>
        <time>2023-07-23T09:14:28Z</time>
      </trkpt>
      <trkpt lat="44.71395" lon="-1.23003">
        <ele>11.19</ele>
        <time>2023-07-23T09:14:40Z</time>
      </trkpt>
      <trkpt lat="44.71396" lon="-1.22988">
        <ele>10.71</ele>
        <time>2023-07-23T09:14:50Z</time>
      </trkpt>
      <trkpt lat="44.71397" lon="-1.22967">
        <ele>11.67</ele>
        <time>2023-07-23T09:15:01Z</time>
      </trkpt>
      <trkpt lat="44.71399" lon="-1.22951">
        <ele>12.63</ele>
        <time>2023-07-23T09:15:11Z</time>
      </trkpt>
      <trkpt lat="44.71403" lon="-1.22936">
        <ele>10.71</ele>
        <time>2023-07-23T09:15:21Z</time>
      </trkpt>
      <trkpt lat="44.71407" lon="-1.22919">
        <ele>10.71</ele>
        <time>2023-07-23T09:15:29Z</time>
      </trkpt>
      <trkpt lat="44.7141" lon="-1.22908">
        <ele>10.71</ele>
        <time>2023-07-23T09:15:36Z</time>
      </trkpt>
      <trkpt lat="44.71421" lon="-1.22892">
        <ele>11.19</ele>
        <time>2023-07-23T09:15:47Z</time>
      </trkpt>
      <trkpt lat="44.71415" lon="-1.22879">
        <ele>11.19</ele>
        <time>2023-07-23T09:15:57Z</time>
      </trkpt>
      <trkpt lat="44.71409" lon="-1.22864">
        <ele>11.19</ele>
        <time>2023-07-23T09:16:07Z</time>
      </trkpt>
      <trkpt lat="44.71405" lon="-1.22845">
        <ele>11.19</ele>
        <time>2023-07-23T09:16:18Z</time>
      </trkpt>
      <trkpt lat="44.71405" lon="-1.22835">
        <ele>11.67</ele>
        <time>2023-07-23T09:16:23Z</time>
      </trkpt>
      <trkpt lat="44.71403" lon="-1.22812">
        <ele>12.15</ele>
        <time>2023-07-23T09:16:34Z</time>
      </trkpt>
      <trkpt lat="44.71399" lon="-1.22804">
        <ele>12.15</ele>
        <time>2023-07-23T09:16:39Z</time>
      </trkpt>
      <trkpt lat="44.71385" lon="-1.22793">
        <ele>13.12</ele>
        <time>2023-07-23T09:16:50Z</time>
      </trkpt>
      <trkpt lat="44.7137" lon="-1.22794">
        <ele>13.12</ele>
        <time>2023-07-23T09:17:02Z</time>
      </trkpt>
      <trkpt lat="44.7136" lon="-1.22801">
        <ele>14.56</ele>
        <time>2023-07-23T09:17:12Z</time>
      </trkpt>
      <trkpt lat="44.71353" lon="-1.22812">
        <ele>15.52</ele>
        <time>2023-07-23T09:17:23Z</time>
      </trkpt>
      <trkpt lat="44.71337" lon="-1.22823">
        <ele>16.48</ele>
        <time>2023-07-23T09:17:33Z</time>
      </trkpt>
      <trkpt lat="44.71325" lon="-1.22832">
        <ele>18.88</ele>
        <time>2023-07-23T09:17:47Z</time>
      </trkpt>
      <trkpt lat="44.7132" lon="-1.2283">
        <ele>19.84</ele>
        <time>2023-07-23T09:17:53Z</time>
      </trkpt>
      <trkpt lat="44.71305" lon="-1.22825">
        <ele>21.29</ele>
        <time>2023-07-23T09:18:03Z</time>
      </trkpt>
      <trkpt lat="44.71296" lon="-1.22823">
        <ele>21.77</ele>
        <time>2023-07-23T09:18:13Z</time>
      </trkpt>
      <trkpt lat="44.71285" lon="-1.22819">
        <ele>21.77</ele>
        <time>2023-07-23T09:18:22Z</time>
      </trkpt>
      <trkpt lat="44.71274" lon="-1.22813">
        <ele>22.25</ele>
        <time>2023-07-23T09:18:28Z</time>
      </trkpt>
      <trkpt lat="44.71258" lon="-1.22801">
        <ele>20.81</ele>
        <time>2023-07-23T09:18:41Z</time>
      </trkpt>
      <trkpt lat="44.71246" lon="-1.22792">
        <ele>21.29</ele>
        <time>2023-07-23T09:18:51Z</time>
      </trkpt>
      <trkpt lat="44.71238" lon="-1.22793">
        <ele>21.77</ele>
        <time>2023-07-23T09:18:58Z</time>
      </trkpt>
      <trkpt lat="44.71226" lon="-1.22798">
        <ele>23.21</ele>
        <time>2023-07-23T09:19:09Z</time>
      </trkpt>
      <trkpt lat="44.71221" lon="-1.22798">
        <ele>19.84</ele>
        <time>2023-07-23T09:19:11Z</time>
      </trkpt>
      <trkpt lat="44.7122" lon="-1.22798">
        <ele>23.69</ele>
        <time>2023-07-23T09:19:12Z</time>
      </trkpt>
      <trkpt lat="44.7122" lon="-1.22796">
        <ele>27.05</ele>
        <time>2023-07-23T09:19:17Z</time>
      </trkpt>
      <trkpt lat="44.7122" lon="-1.22796">
        <ele>23.21</ele>
        <time>2023-07-23T09:19:18Z</time>
      </trkpt>
      <trkpt lat="44.71217" lon="-1.22797">
        <ele>23.21</ele>
        <time>2023-07-23T09:19:25Z</time>
      </trkpt>
      <trkpt lat="44.71216" lon="-1.22796">
        <ele>23.21</ele>
        <time>2023-07-23T09:19:36Z</time>
      </trkpt>
      <trkpt lat="44.71215" lon="-1.22796">
        <ele>31.38</ele>
        <time>2023-07-23T09:19:48Z</time>
      </trkpt>
      <trkpt lat="44.71215" lon="-1.22796">
        <ele>23.69</ele>
        <time>2023-07-23T09:19:49Z</time>
      </trkpt>
      <trkpt lat="44.71215" lon="-1.22796">
        <ele>16.96</ele>
        <time>2023-07-23T09:19:50Z</time>
      </trkpt>
      <trkpt lat="44.71215" lon="-1.22796">
        <ele>25.13</ele>
        <time>2023-07-23T09:19:51Z</time>
      </trkpt>
      <trkpt lat="44.71215" lon="-1.22796">
        <ele>16.96</ele>
        <time>2023-07-23T09:19:52Z</time>
      </trkpt>
      <trkpt lat="44.71215" lon="-1.22796">
        <ele>24.65</ele>
        <time>2023-07-23T09:19:53Z</time>
      </trkpt>
      <trkpt lat="44.71215" lon="-1.22796">
        <ele>19.36</ele>
        <time>2023-07-23T09:19:55Z</time>
      </trkpt>
      <trkpt lat="44.71215" lon="-1.22796">
        <ele>23.69</ele>
        <time>2023-07-23T09:19:56Z</time>
      </trkpt>
      <trkpt lat="44.71215" lon="-1.22796">
        <ele>16.48</ele>
        <time>2023-07-23T09:19:57Z</time>
      </trkpt>
      <trkpt lat="44.71215" lon="-1.22796">
        <ele>24.17</ele>
        <time>2023-07-23T09:19:58Z</time>
      </trkpt>
      <trkpt lat="44.71215" lon="-1.22796">
        <ele>17.92</ele>
        <time>2023-07-23T09:20:00Z</time>
      </trkpt>
      <trkpt lat="44.71214" lon="-1.22795">
        <ele>29.46</ele>
        <time>2023-07-23T09:20:01Z</time>
      </trkpt>
      <trkpt lat="44.71214" lon="-1.22795">
        <ele>23.69</ele>
        <time>2023-07-23T09:20:02Z</time>
      </trkpt>
      <trkpt lat="44.71214" lon="-1.22795">
        <ele>19.84</ele>
        <time>2023-07-23T09:20:03Z</time>
      </trkpt>
      <trkpt lat="44.71214" lon="-1.22795">
        <ele>23.69</ele>
        <time>2023-07-23T09:20:04Z</time>
      </trkpt>
      <trkpt lat="44.71214" lon="-1.22795">
        <ele>20.32</ele>
        <time>2023-07-23T09:20:05Z</time>
      </trkpt>
      <trkpt lat="44.71214" lon="-1.22795">
        <ele>25.61</ele>
        <time>2023-07-23T09:20:06Z</time>
      </trkpt>
      <trkpt lat="44.71214" lon="-1.22795">
        <ele>18.88</ele>
        <time>2023-07-23T09:20:07Z</time>
      </trkpt>
      <trkpt lat="44.71214" lon="-1.22795">
        <ele>23.69</ele>
        <time>2023-07-23T09:20:08Z</time>
      </trkpt>
      <trkpt lat="44.71214" lon="-1.22795">
        <ele>19.36</ele>
        <time>2023-07-23T09:20:10Z</time>
      </trkpt>
      <trkpt lat="44.71214" lon="-1.22795">
        <ele>24.65</ele>
        <time>2023-07-23T09:20:11Z</time>
      </trkpt>
      <trkpt lat="44.71214" lon="-1.22795">
        <ele>28.02</ele>
        <time>2023-07-23T09:20:13Z</time>
      </trkpt>
      <trkpt lat="44.71214" lon="-1.22795">
        <ele>20.81</ele>
        <time>2023-07-23T09:20:14Z</time>
      </trkpt>
      <trkpt lat="44.71214" lon="-1.22795">
        <ele>27.53</ele>
        <time>2023-07-23T09:20:15Z</time>
      </trkpt>
      <trkpt lat="44.71214" lon="-1.22795">
        <ele>23.69</ele>
        <time>2023-07-23T09:20:16Z</time>
      </trkpt>
      <trkpt lat="44.71214" lon="-1.22795">
        <ele>19.36</ele>
        <time>2023-07-23T09:20:18Z</time>
      </trkpt>
      <trkpt lat="44.71214" lon="-1.22795">
        <ele>23.69</ele>
        <time>2023-07-23T09:20:19Z</time>
      </trkpt>
      <trkpt lat="44.71214" lon="-1.22795">
        <ele>20.81</ele>
        <time>2023-07-23T09:20:22Z</time>
      </trkpt>
      <trkpt lat="44.71214" lon="-1.22795">
        <ele>23.69</ele>
        <time>2023-07-23T09:20:24Z</time>
      </trkpt>
      <trkpt lat="44.71215" lon="-1.22795">
        <ele>26.57</ele>
        <time>2023-07-23T09:20:39Z</time>
      </trkpt>
      <trkpt lat="44.71215" lon="-1.22795">
        <ele>25.61</ele>
        <time>2023-07-23T09:20:40Z</time>
      </trkpt>
      <trkpt lat="44.71215" lon="-1.22795">
        <ele>22.25</ele>
        <time>2023-07-23T09:20:41Z</time>
      </trkpt>
      <trkpt lat="44.71214" lon="-1.22795">
        <ele>23.69</ele>
        <time>2023-07-23T09:20:42Z</time>
      </trkpt>
      <trkpt lat="44.71214" lon="-1.22795">
        <ele>20.32</ele>
        <time>2023-07-23T09:20:45Z</time>
      </trkpt>
      <trkpt lat="44.71214" lon="-1.22795">
        <ele>23.69</ele>
        <time>2023-07-23T09:20:47Z</time>
      </trkpt>
      <trkpt lat="44.71214" lon="-1.22795">
        <ele>19.84</ele>
        <time>2023-07-23T09:20:49Z</time>
      </trkpt>
      <trkpt lat="44.71214" lon="-1.22795">
        <ele>24.17</ele>
        <time>2023-07-23T09:20:50Z</time>
      </trkpt>
      <trkpt lat="44.71215" lon="-1.22794">
        <ele>20.32</ele>
        <time>2023-07-23T09:20:59Z</time>
      </trkpt>
      <trkpt lat="44.71215" lon="-1.22794">
        <ele>24.17</ele>
        <time>2023-07-23T09:21:00Z</time>
      </trkpt>
      <trkpt lat="44.71215" lon="-1.22794">
        <ele>28.02</ele>
        <time>2023-07-23T09:21:01Z</time>
      </trkpt>
      <trkpt lat="44.71215" lon="-1.22794">
        <ele>20.81</ele>
        <time>2023-07-23T09:21:02Z</time>
      </trkpt>
      <trkpt lat="44.71215" lon="-1.22794">
        <ele>24.65</ele>
        <time>2023-07-23T09:21:08Z</time>
      </trkpt>
      <trkpt lat="44.71215" lon="-1.22794">
        <ele>19.36</ele>
        <time>2023-07-23T09:21:10Z</time>
      </trkpt>
      <trkpt lat="44.71215" lon="-1.22794">
        <ele>27.05</ele>
        <time>2023-07-23T09:21:11Z</time>
      </trkpt>
      <trkpt lat="44.71214" lon="-1.22794">
        <ele>18.88</ele>
        <time>2023-07-23T09:21:12Z</time>
      </trkpt>
      <trkpt lat="44.71214" lon="-1.22794">
        <ele>25.61</ele>
        <time>2023-07-23T09:21:13Z</time>
      </trkpt>
      <trkpt lat="44.71214" lon="-1.22794">
        <ele>21.29</ele>
        <time>2023-07-23T09:21:14Z</time>
      </trkpt>
      <trkpt lat="44.71214" lon="-1.22794">
        <ele>25.13</ele>
        <time>2023-07-23T09:21:16Z</time>
      </trkpt>
      <trkpt lat="44.71214" lon="-1.22794">
        <ele>23.69</ele>
        <time>2023-07-23T09:21:17Z</time>
      </trkpt>
      <trkpt lat="44.71214" lon="-1.22794">
        <ele>28.02</ele>
        <time>2023-07-23T09:21:27Z</time>
      </trkpt>
      <trkpt lat="44.71214" lon="-1.22794">
        <ele>28.02</ele>
        <time>2023-07-23T09:21:28Z</time>
      </trkpt>
      <trkpt lat="44.71214" lon="-1.22794">
        <ele>23.21</ele>
        <time>2023-07-23T09:21:29Z</time>
      </trkpt>
      <trkpt lat="44.71214" lon="-1.22793">
        <ele>17.44</ele>
        <time>2023-07-23T09:21:34Z</time>
      </trkpt>
      <trkpt lat="44.71214" lon="-1.22793">
        <ele>20.81</ele>
        <time>2023-07-23T09:21:35Z</time>
      </trkpt>
      <trkpt lat="44.71214" lon="-1.22793">
        <ele>23.69</ele>
        <time>2023-07-23T09:21:37Z</time>
      </trkpt>
      <trkpt lat="44.71214" lon="-1.22794">
        <ele>23.69</ele>
        <time>2023-07-23T09:21:49Z</time>
      </trkpt>
      <trkpt lat="44.71214" lon="-1.22794">
        <ele>17.92</ele>
        <time>2023-07-23T09:21:59Z</time>
      </trkpt>
      <trkpt lat="44.71214" lon="-1.22793">
        <ele>25.13</ele>
        <time>2023-07-23T09:22:00Z</time>
      </trkpt>
      <trkpt lat="44.71214" lon="-1.22794">
        <ele>21.77</ele>
        <time>2023-07-23T09:22:01Z</time>
      </trkpt>
      <trkpt lat="44.71214" lon="-1.22794">
        <ele>19.84</ele>
        <time>2023-07-23T09:22:16Z</time>
      </trkpt>
      <trkpt lat="44.71214" lon="-1.22793">
        <ele>24.65</ele>
        <time>2023-07-23T09:22:17Z</time>
      </trkpt>
      <trkpt lat="44.71214" lon="-1.22794">
        <ele>23.69</ele>
        <time>2023-07-23T09:22:26Z</time>
      </trkpt>
      <trkpt lat="44.71216" lon="-1.22792">
        <ele>23.21</ele>
        <time>2023-07-23T09:22:34Z</time>
      </trkpt>
      <trkpt lat="44.71216" lon="-1.2279">
        <ele>23.69</ele>
        <time>2023-07-23T09:22:51Z</time>
      </trkpt>
      <trkpt lat="44.71215" lon="-1.2279">
        <ele>23.69</ele>
        <time>2023-07-23T09:23:07Z</time>
      </trkpt>
      <trkpt lat="44.71215" lon="-1.2279">
        <ele>23.69</ele>
        <time>2023-07-23T09:23:21Z</time>
      </trkpt>
      <trkpt lat="44.71215" lon="-1.22791">
        <ele>23.69</ele>
        <time>2023-07-23T09:23:30Z</time>
      </trkpt>
      <trkpt lat="44.71212" lon="-1.22792">
        <ele>23.21</ele>
        <time>2023-07-23T09:23:41Z</time>
      </trkpt>
      <trkpt lat="44.71222" lon="-1.22788">
        <ele>23.69</ele>
        <time>2023-07-23T09:23:50Z</time>
      </trkpt>
      <trkpt lat="44.71227" lon="-1.22779">
        <ele>21.77</ele>
        <time>2023-07-23T09:24:01Z</time>
      </trkpt>
      <trkpt lat="44.71237" lon="-1.22775">
        <ele>21.77</ele>
        <time>2023-07-23T09:24:12Z</time>
      </trkpt>
      <trkpt lat="44.71249" lon="-1.22771">
        <ele>20.81</ele>
        <time>2023-07-23T09:24:22Z</time>
      </trkpt>
      <trkpt lat="44.71257" lon="-1.2276">
        <ele>18.4</ele>
        <time>2023-07-23T09:24:33Z</time>
      </trkpt>
      <trkpt lat="44.7127" lon="-1.22747">
        <ele>16.48</ele>
        <time>2023-07-23T09:24:45Z</time>
      </trkpt>
      <trkpt lat="44.71276" lon="-1.22742">
        <ele>15.52</ele>
        <time>2023-07-23T09:24:51Z</time>
      </trkpt>
      <trkpt lat="44.71286" lon="-1.2274">
        <ele>15.04</ele>
        <time>2023-07-23T09:24:56Z</time>
      </trkpt>
      <trkpt lat="44.71304" lon="-1.22741">
        <ele>14.08</ele>
        <time>2023-07-23T09:25:07Z</time>
      </trkpt>
      <trkpt lat="44.7131" lon="-1.22741">
        <ele>12.63</ele>
        <time>2023-07-23T09:25:16Z</time>
      </trkpt>
      <trkpt lat="44.71316" lon="-1.22739">
        <ele>11.19</ele>
        <time>2023-07-23T09:25:22Z</time>
      </trkpt>
      <trkpt lat="44.71333" lon="-1.22734">
        <ele>10.71</ele>
        <time>2023-07-23T09:25:34Z</time>
      </trkpt>
      <trkpt lat="44.71346" lon="-1.22731">
        <ele>10.23</ele>
        <time>2023-07-23T09:25:42Z</time>
      </trkpt>
      <trkpt lat="44.71359" lon="-1.2272">
        <ele>9.27</ele>
        <time>2023-07-23T09:25:52Z</time>
      </trkpt>
      <trkpt lat="44.7136" lon="-1.22713">
        <ele>8.31</ele>
        <time>2023-07-23T09:26:00Z</time>
      </trkpt>
      <trkpt lat="44.71344" lon="-1.22709">
        <ele>5.91</ele>
        <time>2023-07-23T09:26:12Z</time>
      </trkpt>
      <trkpt lat="44.71343" lon="-1.22708">
        <ele>5.42</ele>
        <time>2023-07-23T09:26:13Z</time>
      </trkpt>
      <trkpt lat="44.71323" lon="-1.22704">
        <ele>3.5</ele>
        <time>2023-07-23T09:26:25Z</time>
      </trkpt>
      <trkpt lat="44.71312" lon="-1.22703">
        <ele>2.06</ele>
        <time>2023-07-23T09:26:36Z</time>
      </trkpt>
      <trkpt lat="44.71297" lon="-1.22704">
        <ele>2.06</ele>
        <time>2023-07-23T09:26:47Z</time>
      </trkpt>
      <trkpt lat="44.71287" lon="-1.22693">
        <ele>1.1</ele>
        <time>2023-07-23T09:26:56Z</time>
      </trkpt>
      <trkpt lat="44.71278" lon="-1.2268">
        <ele>-0.34</ele>
        <time>2023-07-23T09:27:06Z</time>
      </trkpt>
      <trkpt lat="44.71266" lon="-1.22666">
        <ele>0.62</ele>
        <time>2023-07-23T09:27:18Z</time>
      </trkpt>
      <trkpt lat="44.71254" lon="-1.22676">
        <ele>0.14</ele>
        <time>2023-07-23T09:27:29Z</time>
      </trkpt>
      <trkpt lat="44.71243" lon="-1.22691">
        <ele>0.14</ele>
        <time>2023-07-23T09:27:40Z</time>
      </trkpt>
      <trkpt lat="44.71228" lon="-1.22699">
        <ele>0.62</ele>
        <time>2023-07-23T09:27:50Z</time>
      </trkpt>
      <trkpt lat="44.71213" lon="-1.22702">
        <ele>-0.34</ele>
        <time>2023-07-23T09:28:02Z</time>
      </trkpt>
      <trkpt lat="44.712" lon="-1.22699">
        <ele>-0.34</ele>
        <time>2023-07-23T09:28:15Z</time>
      </trkpt>
      <trkpt lat="44.71188" lon="-1.22699">
        <ele>-0.34</ele>
        <time>2023-07-23T09:28:26Z</time>
      </trkpt>
      <trkpt lat="44.71184" lon="-1.22699">
        <ele>-0.34</ele>
        <time>2023-07-23T09:28:28Z</time>
      </trkpt>
      <trkpt lat="44.71169" lon="-1.22696">
        <ele>0.14</ele>
        <time>2023-07-23T09:28:41Z</time>
      </trkpt>
      <trkpt lat="44.71157" lon="-1.22688">
        <ele>-0.82</ele>
        <time>2023-07-23T09:28:52Z</time>
      </trkpt>
      <trkpt lat="44.71151" lon="-1.22681">
        <ele>-0.34</ele>
        <time>2023-07-23T09:28:57Z</time>
      </trkpt>
      <trkpt lat="44.71139" lon="-1.22663">
        <ele>-0.34</ele>
        <time>2023-07-23T09:29:07Z</time>
      </trkpt>
      <trkpt lat="44.71126" lon="-1.2265">
        <ele>-0.34</ele>
        <time>2023-07-23T09:29:18Z</time>
      </trkpt>
      <trkpt lat="44.71121" lon="-1.22638">
        <ele>-1.3</ele>
        <time>2023-07-23T09:29:29Z</time>
      </trkpt>
      <trkpt lat="44.71114" lon="-1.22623">
        <ele>-0.82</ele>
        <time>2023-07-23T09:29:39Z</time>
      </trkpt>
      <trkpt lat="44.71111" lon="-1.22605">
        <ele>-0.82</ele>
        <time>2023-07-23T09:29:49Z</time>
      </trkpt>
      <trkpt lat="44.71108" lon="-1.22592">
        <ele>-0.82</ele>
        <time>2023-07-23T09:29:58Z</time>
      </trkpt>
      <trkpt lat="44.71103" lon="-1.22576">
        <ele>-0.34</ele>
        <time>2023-07-23T09:30:07Z</time>
      </trkpt>
      <trkpt lat="44.71098" lon="-1.22561">
        <ele>-0.82</ele>
        <time>2023-07-23T09:30:17Z</time>
      </trkpt>
      <trkpt lat="44.71089" lon="-1.22544">
        <ele>-0.34</ele>
        <time>2023-07-23T09:30:27Z</time>
      </trkpt>
      <trkpt lat="44.71083" lon="-1.22526">
        <ele>-0.82</ele>
        <time>2023-07-23T09:30:37Z</time>
      </trkpt>
      <trkpt lat="44.71081" lon="-1.22512">
        <ele>-0.34</ele>
        <time>2023-07-23T09:30:45Z</time>
      </trkpt>
      <trkpt lat="44.71082" lon="-1.22518">
        <ele>-0.34</ele>
        <time>2023-07-23T09:30:56Z</time>
      </trkpt>
      <trkpt lat="44.71086" lon="-1.22525">
        <ele>-0.82</ele>
        <time>2023-07-23T09:31:06Z</time>
      </trkpt>
      <trkpt lat="44.71089" lon="-1.22525">
        <ele>0.14</ele>
        <time>2023-07-23T09:31:14Z</time>
      </trkpt>
      <trkpt lat="44.71092" lon="-1.22525">
        <ele>-0.82</ele>
        <time>2023-07-23T09:31:25Z</time>
      </trkpt>
      <trkpt lat="44.71092" lon="-1.22525">
        <ele>-0.34</ele>
        <time>2023-07-23T09:31:35Z</time>
      </trkpt>
      <trkpt lat="44.71092" lon="-1.22524">
        <ele>-0.34</ele>
        <time>2023-07-23T09:31:49Z</time>
      </trkpt>
      <trkpt lat="44.7109" lon="-1.22523">
        <ele>-0.34</ele>
        <time>2023-07-23T09:32:05Z</time>
      </trkpt>
      <trkpt lat="44.7109" lon="-1.22523">
        <ele>-0.34</ele>
        <time>2023-07-23T09:32:22Z</time>
      </trkpt>
      <trkpt lat="44.7109" lon="-1.22522">
        <ele>-0.82</ele>
        <time>2023-07-23T09:32:37Z</time>
      </trkpt>
      <trkpt lat="44.7109" lon="-1.22523">
        <ele>-0.34</ele>
        <time>2023-07-23T09:32:50Z</time>
      </trkpt>
      <trkpt lat="44.7109" lon="-1.22523">
        <ele>-0.34</ele>
        <time>2023-07-23T09:33:09Z</time>
      </trkpt>
      <trkpt lat="44.7109" lon="-1.22523">
        <ele>-0.34</ele>
        <time>2023-07-23T09:33:27Z</time>
      </trkpt>
      <trkpt lat="44.7109" lon="-1.22523">
        <ele>-0.34</ele>
        <time>2023-07-23T09:33:38Z</time>
      </trkpt>
      <trkpt lat="44.71091" lon="-1.22522">
        <ele>-3.71</ele>
        <time>2023-07-23T09:33:44Z</time>
      </trkpt>
      <trkpt lat="44.71091" lon="-1.22522">
        <ele>0.62</ele>
        <time>2023-07-23T09:33:45Z</time>
      </trkpt>
      <trkpt lat="44.7109" lon="-1.22522">
        <ele>-2.75</ele>
        <time>2023-07-23T09:33:51Z</time>
      </trkpt>
      <trkpt lat="44.71088" lon="-1.2252">
        <ele>1.58</ele>
        <time>2023-07-23T09:33:58Z</time>
      </trkpt>
      <trkpt lat="44.71084" lon="-1.22516">
        <ele>-0.34</ele>
        <time>2023-07-23T09:34:03Z</time>
      </trkpt>
      <trkpt lat="44.7108" lon="-1.22503">
        <ele>-0.34</ele>
        <time>2023-07-23T09:34:13Z</time>
      </trkpt>
      <trkpt lat="44.71076" lon="-1.22489">
        <ele>-0.34</ele>
        <time>2023-07-23T09:34:22Z</time>
      </trkpt>
      <trkpt lat="44.71074" lon="-1.22477">
        <ele>-0.34</ele>
        <time>2023-07-23T09:34:30Z</time>
      </trkpt>
      <trkpt lat="44.71069" lon="-1.22461">
        <ele>-0.82</ele>
        <time>2023-07-23T09:34:39Z</time>
      </trkpt>
      <trkpt lat="44.71065" lon="-1.22445">
        <ele>-0.34</ele>
        <time>2023-07-23T09:34:48Z</time>
      </trkpt>
      <trkpt lat="44.71062" lon="-1.22433">
        <ele>-0.82</ele>
        <time>2023-07-23T09:34:56Z</time>
      </trkpt>
      <trkpt lat="44.71058" lon="-1.22419">
        <ele>-0.82</ele>
        <time>2023-07-23T09:35:04Z</time>
      </trkpt>
      <trkpt lat="44.71053" lon="-1.22404">
        <ele>-0.34</ele>
        <time>2023-07-23T09:35:13Z</time>
      </trkpt>
      <trkpt lat="44.71048" lon="-1.22387">
        <ele>-1.3</ele>
        <time>2023-07-23T09:35:23Z</time>
      </trkpt>
      <trkpt lat="44.71046" lon="-1.2238">
        <ele>-1.3</ele>
        <time>2023-07-23T09:35:28Z</time>
      </trkpt>
      <trkpt lat="44.7104" lon="-1.22366">
        <ele>-1.3</ele>
        <time>2023-07-23T09:35:36Z</time>
      </trkpt>
      <trkpt lat="44.7104" lon="-1.2235">
        <ele>-1.3</ele>
        <time>2023-07-23T09:35:45Z</time>
      </trkpt>
      <trkpt lat="44.71039" lon="-1.22336">
        <ele>-0.82</ele>
        <time>2023-07-23T09:35:52Z</time>
      </trkpt>
      <trkpt lat="44.71034" lon="-1.2232">
        <ele>-1.3</ele>
        <time>2023-07-23T09:36:01Z</time>
      </trkpt>
      <trkpt lat="44.7103" lon="-1.22305">
        <ele>-1.3</ele>
        <time>2023-07-23T09:36:10Z</time>
      </trkpt>
      <trkpt lat="44.71029" lon="-1.22294">
        <ele>-1.79</ele>
        <time>2023-07-23T09:36:17Z</time>
      </trkpt>
      <trkpt lat="44.71034" lon="-1.22278">
        <ele>-1.3</ele>
        <time>2023-07-23T09:36:27Z</time>
      </trkpt>
      <trkpt lat="44.71036" lon="-1.22274">
        <ele>-0.82</ele>
        <time>2023-07-23T09:36:30Z</time>
      </trkpt>
      <trkpt lat="44.71044" lon="-1.22257">
        <ele>-0.82</ele>
        <time>2023-07-23T09:36:40Z</time>
      </trkpt>
      <trkpt lat="44.71053" lon="-1.22241">
        <ele>-1.3</ele>
        <time>2023-07-23T09:36:52Z</time>
      </trkpt>
      <trkpt lat="44.71054" lon="-1.22239">
        <ele>-1.3</ele>
        <time>2023-07-23T09:37:00Z</time>
      </trkpt>
      <trkpt lat="44.71054" lon="-1.22239">
        <ele>-1.3</ele>
        <time>2023-07-23T09:37:13Z</time>
      </trkpt>
      <trkpt lat="44.71054" lon="-1.22238">
        <ele>-1.3</ele>
        <time>2023-07-23T09:37:27Z</time>
      </trkpt>
      <trkpt lat="44.71054" lon="-1.22238">
        <ele>-1.79</ele>
        <time>2023-07-23T09:37:28Z</time>
      </trkpt>
      <trkpt lat="44.71057" lon="-1.22234">
        <ele>-1.79</ele>
        <time>2023-07-23T09:37:37Z</time>
      </trkpt>
      <trkpt lat="44.71059" lon="-1.22231">
        <ele>-1.79</ele>
        <time>2023-07-23T09:37:47Z</time>
      </trkpt>
      <trkpt lat="44.71061" lon="-1.22227">
        <ele>-1.3</ele>
        <time>2023-07-23T09:37:51Z</time>
      </trkpt>
      <trkpt lat="44.71065" lon="-1.22218">
        <ele>-1.3</ele>
        <time>2023-07-23T09:37:58Z</time>
      </trkpt>
      <trkpt lat="44.71071" lon="-1.22208">
        <ele>-1.79</ele>
        <time>2023-07-23T09:38:05Z</time>
      </trkpt>
      <trkpt lat="44.71074" lon="-1.22204">
        <ele>-1.3</ele>
        <time>2023-07-23T09:38:10Z</time>
      </trkpt>
      <trkpt lat="44.71081" lon="-1.2219">
        <ele>-2.27</ele>
        <time>2023-07-23T09:38:21Z</time>
      </trkpt>
      <trkpt lat="44.71089" lon="-1.22179">
        <ele>-1.3</ele>
        <time>2023-07-23T09:38:29Z</time>
      </trkpt>
      <trkpt lat="44.71094" lon="-1.22172">
        <ele>-1.79</ele>
        <time>2023-07-23T09:38:36Z</time>
      </trkpt>
      <trkpt lat="44.711" lon="-1.22164">
        <ele>-1.79</ele>
        <time>2023-07-23T09:38:43Z</time>
      </trkpt>
      <trkpt lat="44.71107" lon="-1.22153">
        <ele>-2.27</ele>
        <time>2023-07-23T09:38:53Z</time>
      </trkpt>
      <trkpt lat="44.71114" lon="-1.22147">
        <ele>-1.79</ele>
        <time>2023-07-23T09:39:00Z</time>
      </trkpt>
      <trkpt lat="44.71121" lon="-1.22147">
        <ele>-1.79</ele>
        <time>2023-07-23T09:39:07Z</time>
      </trkpt>
      <trkpt lat="44.71127" lon="-1.22153">
        <ele>-1.79</ele>
        <time>2023-07-23T09:39:18Z</time>
      </trkpt>
      <trkpt lat="44.71137" lon="-1.2216">
        <ele>-1.3</ele>
        <time>2023-07-23T09:39:28Z</time>
      </trkpt>
      <trkpt lat="44.71139" lon="-1.22163">
        <ele>-1.79</ele>
        <time>2023-07-23T09:39:37Z</time>
      </trkpt>
      <trkpt lat="44.71139" lon="-1.2217">
        <ele>-2.27</ele>
        <time>2023-07-23T09:39:45Z</time>
      </trkpt>
      <trkpt lat="44.71137" lon="-1.22175">
        <ele>-2.27</ele>
        <time>2023-07-23T09:39:56Z</time>
      </trkpt>
      <trkpt lat="44.71136" lon="-1.22179">
        <ele>-1.79</ele>
        <time>2023-07-23T09:40:04Z</time>
      </trkpt>
      <trkpt lat="44.71127" lon="-1.22196">
        <ele>-1.79</ele>
        <time>2023-07-23T09:40:15Z</time>
      </trkpt>
      <trkpt lat="44.71114" lon="-1.22219">
        <ele>-1.79</ele>
        <time>2023-07-23T09:40:28Z</time>
      </trkpt>
      <trkpt lat="44.71109" lon="-1.22236">
        <ele>-0.82</ele>
        <time>2023-07-23T09:40:39Z</time>
      </trkpt>
      <trkpt lat="44.71113" lon="-1.22255">
        <ele>-0.34</ele>
        <time>2023-07-23T09:40:51Z</time>
      </trkpt>
      <trkpt lat="44.7112" lon="-1.22272">
        <ele>-0.34</ele>
        <time>2023-07-23T09:41:02Z</time>
      </trkpt>
      <trkpt lat="44.71129" lon="-1.22286">
        <ele>-0.82</ele>
        <time>2023-07-23T09:41:12Z</time>
      </trkpt>
      <trkpt lat="44.71136" lon="-1.22296">
        <ele>-0.82</ele>
        <time>2023-07-23T09:41:22Z</time>
      </trkpt>
      <trkpt lat="44.71136" lon="-1.22302">
        <ele>-1.3</ele>
        <time>2023-07-23T09:41:31Z</time>
      </trkpt>
      <trkpt lat="44.71136" lon="-1.22304">
        <ele>-1.3</ele>
        <time>2023-07-23T09:41:33Z</time>
      </trkpt>
      <trkpt lat="44.71136" lon="-1.22311">
        <ele>-1.79</ele>
        <time>2023-07-23T09:41:41Z</time>
      </trkpt>
      <trkpt lat="44.71136" lon="-1.22311">
        <ele>-1.79</ele>
        <time>2023-07-23T09:41:56Z</time>
      </trkpt>
      <trkpt lat="44.71136" lon="-1.22309">
        <ele>-1.79</ele>
        <time>2023-07-23T09:42:06Z</time>
      </trkpt>
      <trkpt lat="44.71136" lon="-1.22306">
        <ele>-1.3</ele>
        <time>2023-07-23T09:42:17Z</time>
      </trkpt>
      <trkpt lat="44.71137" lon="-1.22292">
        <ele>-1.3</ele>
        <time>2023-07-23T09:42:28Z</time>
      </trkpt>
      <trkpt lat="44.71148" lon="-1.22287">
        <ele>-1.3</ele>
        <time>2023-07-23T09:42:37Z</time>
      </trkpt>
      <trkpt lat="44.71159" lon="-1.2228">
        <ele>-1.79</ele>
        <time>2023-07-23T09:42:48Z</time>
      </trkpt>
      <trkpt lat="44.71173" lon="-1.2228">
        <ele>-1.79</ele>
        <time>2023-07-23T09:43:00Z</time>
      </trkpt>
      <trkpt lat="44.71177" lon="-1.22287">
        <ele>-1.79</ele>
        <time>2023-07-23T09:43:09Z</time>
      </trkpt>
      <trkpt lat="44.71181" lon="-1.22289">
        <ele>-1.79</ele>
        <time>2023-07-23T09:43:21Z</time>
      </trkpt>
      <trkpt lat="44.71195" lon="-1.22288">
        <ele>-0.82</ele>
        <time>2023-07-23T09:43:29Z</time>
      </trkpt>
      <trkpt lat="44.71201" lon="-1.22282">
        <ele>-1.3</ele>
        <time>2023-07-23T09:43:37Z</time>
      </trkpt>
      <trkpt lat="44.71194" lon="-1.2227">
        <ele>-0.82</ele>
        <time>2023-07-23T09:43:47Z</time>
      </trkpt>
      <trkpt lat="44.71186" lon="-1.22252">
        <ele>-1.79</ele>
        <time>2023-07-23T09:43:58Z</time>
      </trkpt>
      <trkpt lat="44.71178" lon="-1.22239">
        <ele>-1.79</ele>
        <time>2023-07-23T09:44:09Z</time>
      </trkpt>
      <trkpt lat="44.71176" lon="-1.22228">
        <ele>-2.27</ele>
        <time>2023-07-23T09:44:18Z</time>
      </trkpt>
      <trkpt lat="44.7118" lon="-1.22202">
        <ele>-1.79</ele>
        <time>2023-07-23T09:44:29Z</time>
      </trkpt>
      <trkpt lat="44.71179" lon="-1.22186">
        <ele>-2.27</ele>
        <time>2023-07-23T09:44:38Z</time>
      </trkpt>
      <trkpt lat="44.71186" lon="-1.22169">
        <ele>-2.75</ele>
        <time>2023-07-23T09:44:49Z</time>
      </trkpt>
      <trkpt lat="44.71192" lon="-1.22155">
        <ele>-2.27</ele>
        <time>2023-07-23T09:44:59Z</time>
      </trkpt>
      <trkpt lat="44.71192" lon="-1.22136">
        <ele>-2.75</ele>
        <time>2023-07-23T09:45:10Z</time>
      </trkpt>
      <trkpt lat="44.71194" lon="-1.22127">
        <ele>-2.75</ele>
        <time>2023-07-23T09:45:17Z</time>
      </trkpt>
      <trkpt lat="44.71198" lon="-1.2211">
        <ele>-2.75</ele>
        <time>2023-07-23T09:45:25Z</time>
      </trkpt>
      <trkpt lat="44.71202" lon="-1.22102">
        <ele>-3.23</ele>
        <time>2023-07-23T09:45:31Z</time>
      </trkpt>
      <trkpt lat="44.71205" lon="-1.22094">
        <ele>-2.75</ele>
        <time>2023-07-23T09:45:37Z</time>
      </trkpt>
      <trkpt lat="44.71208" lon="-1.22086">
        <ele>-2.75</ele>
        <time>2023-07-23T09:45:45Z</time>
      </trkpt>
      <trkpt lat="44.71212" lon="-1.22078">
        <ele>-2.75</ele>
        <time>2023-07-23T09:45:49Z</time>
      </trkpt>
      <trkpt lat="44.71213" lon="-1.22075">
        <ele>-2.75</ele>
        <time>2023-07-23T09:45:50Z</time>
      </trkpt>
      <trkpt lat="44.71215" lon="-1.22069">
        <ele>-2.75</ele>
        <time>2023-07-23T09:45:55Z</time>
      </trkpt>
      <trkpt lat="44.71221" lon="-1.22061">
        <ele>-2.75</ele>
        <time>2023-07-23T09:46:01Z</time>
      </trkpt>
      <trkpt lat="44.7122" lon="-1.22061">
        <ele>-2.27</ele>
        <time>2023-07-23T09:46:02Z</time>
      </trkpt>
      <trkpt lat="44.7122" lon="-1.22053">
        <ele>-2.27</ele>
        <time>2023-07-23T09:46:07Z</time>
      </trkpt>
      <trkpt lat="44.7122" lon="-1.22053">
        <ele>-2.75</ele>
        <time>2023-07-23T09:46:09Z</time>
      </trkpt>
      <trkpt lat="44.71217" lon="-1.22051">
        <ele>-2.27</ele>
        <time>2023-07-23T09:46:11Z</time>
      </trkpt>
      <trkpt lat="44.71211" lon="-1.22038">
        <ele>-3.23</ele>
        <time>2023-07-23T09:46:16Z</time>
      </trkpt>
      <trkpt lat="44.71209" lon="-1.22037">
        <ele>-2.27</ele>
        <time>2023-07-23T09:46:19Z</time>
      </trkpt>
      <trkpt lat="44.71208" lon="-1.22036">
        <ele>-2.27</ele>
        <time>2023-07-23T09:46:23Z</time>
      </trkpt>
      <trkpt lat="44.71202" lon="-1.22034">
        <ele>-2.75</ele>
        <time>2023-07-23T09:46:27Z</time>
      </trkpt>
    </trkseg>
  </trk>
</gpx>